PWSweather.com
Personal Weather Stations
Station Observations
DL5ARK
SonnebergDE

SonnebergDE

Lat: 50.34904861, Lon: 11.18112087

Elevation: 1214

Station Type: Selfmade

http://www.sumbarg.de

High Low Average
Temperature 77.9°F25.5°C 46.6°F8.1°C 63.2°F17.3°C
Dew Point 52.3°F11.3°C 44.0°F6.7°C 47.5°F8.6°C
Winds 13.7 mph 22.0 kmh Calm Calm 5.0 mph S8.0 kmh S
Wind Gusts 13.9 mph22.4 kmh -- 5.0 mph8.0 kmh
Humidity 63% 28% 43%
Pressure 30.10 in1019.3 mb 30.04 in1017.3 mb -
Precipitation 0.00 in0.0 mm - -
Hour Temp Dew Point Humidity Winds Wind Gusts Pressure Precip Precip Rate Daily Precip Total
12:02 AM 56.5°F13.6°C 45.5°F7.5°C 48% 4.0 mph NNW6.4 kmh NNW 4.0 mph6.4 kmh 30.07 in1018.3 mb 0.00 in0.0 mm 0.00 in0.0 mm 0.00 in0.0 mm
12:05 AM 56.6°F13.7°C 45.2°F7.3°C 48% 4.4 mph ESE7.1 kmh ESE 4.5 mph7.2 kmh 30.08 in1018.6 mb 0.00 in0.0 mm 0.00 in0.0 mm 0.00 in0.0 mm
12:08 AM 56.2°F13.4°C 45.2°F7.3°C 49% 6.0 mph SE9.7 kmh SE 6.0 mph9.7 kmh 30.07 in1018.3 mb 0.00 in0.0 mm 0.00 in0.0 mm 0.00 in0.0 mm
12:11 AM 56.9°F13.8°C 45.3°F7.4°C 49% 4.8 mph NNW7.7 kmh NNW 4.8 mph7.7 kmh 30.07 in1018.3 mb 0.00 in0.0 mm 0.00 in0.0 mm 0.00 in0.0 mm
12:14 AM 56.4°F13.6°C 45.2°F7.3°C 49% 5.6 mph SE9.0 kmh SE 5.6 mph9.0 kmh 30.07 in1018.3 mb 0.00 in0.0 mm 0.00 in0.0 mm 0.00 in0.0 mm
12:17 AM 56.3°F13.5°C 45.3°F7.4°C 49% 4.0 mph NNW6.4 kmh NNW 4.1 mph6.6 kmh 30.07 in1018.3 mb 0.00 in0.0 mm 0.00 in0.0 mm 0.00 in0.0 mm
12:20 AM 55.6°F13.1°C 45.2°F7.3°C 49% 0.8 mph SE1.3 kmh SE 0.8 mph1.3 kmh 30.08 in1018.6 mb 0.00 in0.0 mm 0.00 in0.0 mm 0.00 in0.0 mm
12:23 AM 55.9°F13.3°C 45.3°F7.4°C 49% 4.8 mph SE7.7 kmh SE 4.9 mph7.9 kmh 30.08 in1018.6 mb 0.00 in0.0 mm 0.00 in0.0 mm 0.00 in0.0 mm
12:26 AM 55.6°F13.1°C 45.3°F7.4°C 49% 0.8 mph NNW1.3 kmh NNW 0.8 mph1.3 kmh 30.08 in1018.6 mb 0.00 in0.0 mm 0.00 in0.0 mm 0.00 in0.0 mm
12:29 AM 55.6°F13.1°C 45.1°F7.3°C 49% 2.0 mph ESE3.2 kmh ESE 2.0 mph3.2 kmh 30.08 in1018.6 mb 0.00 in0.0 mm 0.00 in0.0 mm 0.00 in0.0 mm
12:32 AM 55.3°F12.9°C 45.5°F7.5°C 50% 6.8 mph E10.9 kmh E 6.8 mph10.9 kmh 30.08 in1018.6 mb 0.00 in0.0 mm 0.00 in0.0 mm 0.00 in0.0 mm
12:35 AM 55.6°F13.1°C 45.3°F7.4°C 50% 2.4 mph NNW3.9 kmh NNW 2.4 mph3.9 kmh 30.08 in1018.6 mb 0.00 in0.0 mm 0.00 in0.0 mm 0.00 in0.0 mm
12:38 AM 55.2°F12.9°C 45.4°F7.4°C 50% 4.0 mph ESE6.4 kmh ESE 4.1 mph6.6 kmh 30.08 in1018.6 mb 0.00 in0.0 mm 0.00 in0.0 mm 0.00 in0.0 mm
12:41 AM 55.2°F12.9°C 45.4°F7.4°C 50% 1.2 mph SE1.9 kmh SE 1.2 mph1.9 kmh 30.08 in1018.6 mb 0.00 in0.0 mm 0.00 in0.0 mm 0.00 in0.0 mm
12:44 AM 55.0°F12.8°C 45.3°F7.4°C 50% 2.4 mph NNW3.9 kmh NNW 2.4 mph3.9 kmh 30.08 in1018.6 mb 0.00 in0.0 mm 0.00 in0.0 mm 0.00 in0.0 mm
12:47 AM 55.6°F13.1°C 45.2°F7.3°C 51% 5.6 mph NNW9.0 kmh NNW 5.6 mph9.0 kmh 30.08 in1018.6 mb 0.00 in0.0 mm 0.00 in0.0 mm 0.00 in0.0 mm
12:50 AM 55.3°F12.9°C 45.2°F7.3°C 51% 1.2 mph SE1.9 kmh SE 1.2 mph1.9 kmh 30.08 in1018.6 mb 0.00 in0.0 mm 0.00 in0.0 mm 0.00 in0.0 mm
12:53 AM 54.4°F12.4°C 45.3°F7.4°C 51% Calm Calm -- 30.08 in1018.6 mb 0.00 in0.0 mm 0.00 in0.0 mm 0.00 in0.0 mm
12:56 AM 53.6°F12.0°C 45.7°F7.6°C 51% Calm Calm -- 30.08 in1018.6 mb 0.00 in0.0 mm 0.00 in0.0 mm 0.00 in0.0 mm
12:59 AM 54.4°F12.4°C 45.2°F7.3°C 51% 2.0 mph SE3.2 kmh SE 2.0 mph3.2 kmh 30.08 in1018.6 mb 0.00 in0.0 mm 0.00 in0.0 mm 0.00 in0.0 mm
01:02 AM 53.5°F11.9°C 45.7°F7.6°C 52% Calm Calm -- 30.09 in1019.0 mb 0.00 in0.0 mm 0.00 in0.0 mm 0.00 in0.0 mm
01:05 AM 53.0°F11.7°C 45.5°F7.5°C 51% Calm Calm -- 30.08 in1018.6 mb 0.00 in0.0 mm 0.00 in0.0 mm 0.00 in0.0 mm
01:08 AM 52.9°F11.6°C 45.4°F7.4°C 52% 0.4 mph NNW0.6 kmh NNW 0.4 mph0.6 kmh 30.09 in1019.0 mb 0.00 in0.0 mm 0.00 in0.0 mm 0.00 in0.0 mm
01:11 AM 52.6°F11.4°C 45.4°F7.4°C 52% Calm Calm -- 30.08 in1018.6 mb 0.00 in0.0 mm 0.00 in0.0 mm 0.00 in0.0 mm
01:14 AM 52.1°F11.2°C 45.7°F7.6°C 53% Calm Calm -- 30.08 in1018.6 mb 0.00 in0.0 mm 0.00 in0.0 mm 0.00 in0.0 mm
01:17 AM 51.8°F11.0°C 45.6°F7.6°C 53% Calm Calm -- 30.08 in1018.6 mb 0.00 in0.0 mm 0.00 in0.0 mm 0.00 in0.0 mm
01:20 AM 51.8°F11.0°C 45.8°F7.7°C 53% Calm Calm -- 30.08 in1018.6 mb 0.00 in0.0 mm 0.00 in0.0 mm 0.00 in0.0 mm
01:26 AM 51.1°F10.6°C 45.7°F7.6°C 54% Calm Calm -- 30.10 in1019.3 mb 0.00 in0.0 mm 0.00 in0.0 mm 0.00 in0.0 mm
01:29 AM 50.7°F10.4°C 45.9°F7.7°C 54% Calm Calm -- 30.09 in1019.0 mb 0.00 in0.0 mm 0.00 in0.0 mm 0.00 in0.0 mm
01:32 AM 50.7°F10.4°C 45.6°F7.6°C 54% Calm Calm -- 30.09 in1019.0 mb 0.00 in0.0 mm 0.00 in0.0 mm 0.00 in0.0 mm
01:35 AM 50.2°F10.1°C 45.7°F7.6°C 55% Calm Calm -- 30.09 in1019.0 mb 0.00 in0.0 mm 0.00 in0.0 mm 0.00 in0.0 mm
01:41 AM 49.7°F9.8°C 45.7°F7.6°C 55% Calm Calm -- 30.09 in1019.0 mb 0.00 in0.0 mm 0.00 in0.0 mm 0.00 in0.0 mm
01:44 AM 49.7°F9.8°C 45.6°F7.6°C 56% Calm Calm -- 30.09 in1019.0 mb 0.00 in0.0 mm 0.00 in0.0 mm 0.00 in0.0 mm
01:47 AM 49.3°F9.6°C 45.7°F7.6°C 56% Calm Calm -- 30.09 in1019.0 mb 0.00 in0.0 mm 0.00 in0.0 mm 0.00 in0.0 mm
01:50 AM 49.4°F9.7°C 45.4°F7.4°C 56% Calm Calm -- 30.09 in1019.0 mb 0.00 in0.0 mm 0.00 in0.0 mm 0.00 in0.0 mm
01:53 AM 49.4°F9.7°C 45.6°F7.6°C 56% Calm Calm -- 30.08 in1018.6 mb 0.00 in0.0 mm 0.00 in0.0 mm 0.00 in0.0 mm
01:56 AM 49.3°F9.6°C 45.5°F7.5°C 56% Calm Calm -- 30.08 in1018.6 mb 0.00 in0.0 mm 0.00 in0.0 mm 0.00 in0.0 mm
01:59 AM 49.3°F9.6°C 45.7°F7.6°C 57% Calm Calm -- 30.08 in1018.6 mb 0.00 in0.0 mm 0.00 in0.0 mm 0.00 in0.0 mm
02:02 AM 49.2°F9.6°C 45.5°F7.5°C 57% Calm Calm -- 30.08 in1018.6 mb 0.00 in0.0 mm 0.00 in0.0 mm 0.00 in0.0 mm
02:05 AM 48.9°F9.4°C 45.3°F7.4°C 57% Calm Calm -- 30.08 in1018.6 mb 0.00 in0.0 mm 0.00 in0.0 mm 0.00 in0.0 mm
02:08 AM 48.5°F9.2°C 45.5°F7.5°C 57% Calm Calm -- 30.08 in1018.6 mb 0.00 in0.0 mm 0.00 in0.0 mm 0.00 in0.0 mm
02:11 AM 48.7°F9.3°C 45.3°F7.4°C 57% Calm Calm -- 30.08 in1018.6 mb 0.00 in0.0 mm 0.00 in0.0 mm 0.00 in0.0 mm
02:14 AM 48.4°F9.1°C 45.4°F7.4°C 58% Calm Calm -- 30.08 in1018.6 mb 0.00 in0.0 mm 0.00 in0.0 mm 0.00 in0.0 mm
02:17 AM 48.5°F9.2°C 45.5°F7.5°C 58% Calm Calm -- 30.08 in1018.6 mb 0.00 in0.0 mm 0.00 in0.0 mm 0.00 in0.0 mm
02:20 AM 48.5°F9.2°C 45.4°F7.4°C 58% Calm Calm -- 30.08 in1018.6 mb 0.00 in0.0 mm 0.00 in0.0 mm 0.00 in0.0 mm
02:23 AM 48.5°F9.2°C 45.2°F7.3°C 58% Calm Calm -- 30.07 in1018.3 mb 0.00 in0.0 mm 0.00 in0.0 mm 0.00 in0.0 mm
02:26 AM 48.8°F9.3°C 45.2°F7.3°C 58% Calm Calm -- 30.08 in1018.6 mb 0.00 in0.0 mm 0.00 in0.0 mm 0.00 in0.0 mm
02:29 AM 48.4°F9.1°C 45.1°F7.3°C 58% Calm Calm -- 30.07 in1018.3 mb 0.00 in0.0 mm 0.00 in0.0 mm 0.00 in0.0 mm
02:32 AM 48.3°F9.1°C 45.0°F7.2°C 58% Calm Calm -- 30.07 in1018.3 mb 0.00 in0.0 mm 0.00 in0.0 mm 0.00 in0.0 mm
02:35 AM 48.3°F9.1°C 44.8°F7.1°C 58% 3.2 mph ESE5.1 kmh ESE 3.2 mph5.1 kmh 30.08 in1018.6 mb 0.00 in0.0 mm 0.00 in0.0 mm 0.00 in0.0 mm
02:38 AM 48.1°F8.9°C 44.9°F7.2°C 58% Calm Calm -- 30.07 in1018.3 mb 0.00 in0.0 mm 0.00 in0.0 mm 0.00 in0.0 mm
02:41 AM 48.9°F9.4°C 45.1°F7.3°C 59% 1.6 mph NNW2.6 kmh NNW 1.6 mph2.6 kmh 30.08 in1018.6 mb 0.00 in0.0 mm 0.00 in0.0 mm 0.00 in0.0 mm
02:44 AM 49.1°F9.5°C 44.8°F7.1°C 59% 0.8 mph SE1.3 kmh SE 0.8 mph1.3 kmh 30.07 in1018.3 mb 0.00 in0.0 mm 0.00 in0.0 mm 0.00 in0.0 mm
02:47 AM 49.9°F9.9°C 44.9°F7.2°C 59% 2.8 mph SE4.5 kmh SE 2.8 mph4.5 kmh 30.07 in1018.3 mb 0.00 in0.0 mm 0.00 in0.0 mm 0.00 in0.0 mm
02:50 AM 49.8°F9.9°C 45.0°F7.2°C 58% Calm Calm -- 30.07 in1018.3 mb 0.00 in0.0 mm 0.00 in0.0 mm 0.00 in0.0 mm
02:53 AM 49.8°F9.9°C 44.8°F7.1°C 58% Calm Calm -- 30.07 in1018.3 mb 0.00 in0.0 mm 0.00 in0.0 mm 0.00 in0.0 mm
02:56 AM 49.3°F9.6°C 44.7°F7.1°C 58% Calm Calm -- 30.07 in1018.3 mb 0.00 in0.0 mm 0.00 in0.0 mm 0.00 in0.0 mm
02:59 AM 49.6°F9.8°C 44.7°F7.1°C 58% 2.4 mph SE3.9 kmh SE 2.4 mph3.9 kmh 30.07 in1018.3 mb 0.00 in0.0 mm 0.00 in0.0 mm 0.00 in0.0 mm
03:02 AM 49.0°F9.4°C 44.7°F7.1°C 58% Calm Calm -- 30.07 in1018.3 mb 0.00 in0.0 mm 0.00 in0.0 mm 0.00 in0.0 mm
03:05 AM 49.0°F9.4°C 44.5°F6.9°C 58% Calm Calm -- 30.07 in1018.3 mb 0.00 in0.0 mm 0.00 in0.0 mm 0.00 in0.0 mm
03:08 AM 48.8°F9.3°C 44.3°F6.8°C 58% Calm Calm -- 30.07 in1018.3 mb 0.00 in0.0 mm 0.00 in0.0 mm 0.00 in0.0 mm
03:11 AM 48.4°F9.1°C 44.3°F6.8°C 58% Calm Calm -- 30.07 in1018.3 mb 0.00 in0.0 mm 0.00 in0.0 mm 0.00 in0.0 mm
03:14 AM 48.3°F9.1°C 44.5°F6.9°C 58% Calm Calm -- 30.07 in1018.3 mb 0.00 in0.0 mm 0.00 in0.0 mm 0.00 in0.0 mm
03:17 AM 48.2°F9.0°C 44.7°F7.1°C 58% Calm Calm -- 30.07 in1018.3 mb 0.00 in0.0 mm 0.00 in0.0 mm 0.00 in0.0 mm
03:20 AM 48.1°F8.9°C 44.5°F6.9°C 58% Calm Calm -- 30.07 in1018.3 mb 0.00 in0.0 mm 0.00 in0.0 mm 0.00 in0.0 mm
03:23 AM 47.9°F8.8°C 44.1°F6.7°C 58% Calm Calm -- 30.07 in1018.3 mb 0.00 in0.0 mm 0.00 in0.0 mm 0.00 in0.0 mm
03:29 AM 47.4°F8.6°C 44.2°F6.8°C 58% Calm Calm -- 30.07 in1018.3 mb 0.00 in0.0 mm 0.00 in0.0 mm 0.00 in0.0 mm
03:32 AM 47.4°F8.6°C 44.4°F6.9°C 59% Calm Calm -- 30.07 in1018.3 mb 0.00 in0.0 mm 0.00 in0.0 mm 0.00 in0.0 mm
03:35 AM 47.4°F8.6°C 44.2°F6.8°C 59% Calm Calm -- 30.07 in1018.3 mb 0.00 in0.0 mm 0.00 in0.0 mm 0.00 in0.0 mm
03:38 AM 47.3°F8.5°C 44.1°F6.7°C 59% Calm Calm -- 30.07 in1018.3 mb 0.00 in0.0 mm 0.00 in0.0 mm 0.00 in0.0 mm
03:41 AM 47.2°F8.4°C 44.2°F6.8°C 59% Calm Calm -- 30.07 in1018.3 mb 0.00 in0.0 mm 0.00 in0.0 mm 0.00 in0.0 mm
03:44 AM 47.4°F8.6°C 44.2°F6.8°C 60% Calm Calm -- 30.07 in1018.3 mb 0.00 in0.0 mm 0.00 in0.0 mm 0.00 in0.0 mm
03:47 AM 47.0°F8.3°C 44.2°F6.8°C 60% Calm Calm -- 30.07 in1018.3 mb 0.00 in0.0 mm 0.00 in0.0 mm 0.00 in0.0 mm
03:50 AM 47.3°F8.5°C 44.1°F6.7°C 60% Calm Calm -- 30.07 in1018.3 mb 0.00 in0.0 mm 0.00 in0.0 mm 0.00 in0.0 mm
03:53 AM 47.2°F8.4°C 44.4°F6.9°C 60% Calm Calm -- 30.07 in1018.3 mb 0.00 in0.0 mm 0.00 in0.0 mm 0.00 in0.0 mm
03:56 AM 46.9°F8.3°C 44.2°F6.8°C 60% Calm Calm -- 30.07 in1018.3 mb 0.00 in0.0 mm 0.00 in0.0 mm 0.00 in0.0 mm
03:59 AM 46.6°F8.1°C 44.0°F6.7°C 60% Calm Calm -- 30.07 in1018.3 mb 0.00 in0.0 mm 0.00 in0.0 mm 0.00 in0.0 mm
04:02 AM 47.1°F8.4°C 44.3°F6.8°C 61% Calm Calm -- 30.07 in1018.3 mb 0.00 in0.0 mm 0.00 in0.0 mm 0.00 in0.0 mm
04:05 AM 47.3°F8.5°C 44.0°F6.7°C 61% Calm Calm -- 30.07 in1018.3 mb 0.00 in0.0 mm 0.00 in0.0 mm 0.00 in0.0 mm
04:08 AM 47.4°F8.6°C 44.4°F6.9°C 62% Calm Calm -- 30.07 in1018.3 mb 0.00 in0.0 mm 0.00 in0.0 mm 0.00 in0.0 mm
04:14 AM 48.4°F9.1°C 44.6°F7.0°C 63% 1.6 mph SE2.6 kmh SE 1.6 mph2.6 kmh 30.07 in1018.3 mb 0.00 in0.0 mm 0.00 in0.0 mm 0.00 in0.0 mm
04:17 AM 49.6°F9.8°C 44.6°F7.0°C 63% 2.0 mph E3.2 kmh E 2.0 mph3.2 kmh 30.07 in1018.3 mb 0.00 in0.0 mm 0.00 in0.0 mm 0.00 in0.0 mm
04:20 AM 50.2°F10.1°C 44.8°F7.1°C 63% 3.6 mph NNW5.8 kmh NNW 3.6 mph5.8 kmh 30.07 in1018.3 mb 0.00 in0.0 mm 0.00 in0.0 mm 0.00 in0.0 mm
04:23 AM 50.3°F10.2°C 44.7°F7.1°C 62% 1.2 mph NNW1.9 kmh NNW 1.2 mph1.9 kmh 30.07 in1018.3 mb 0.00 in0.0 mm 0.00 in0.0 mm 0.00 in0.0 mm
04:26 AM 50.8°F10.4°C 44.8°F7.1°C 62% 1.2 mph E1.9 kmh E 1.2 mph1.9 kmh 30.07 in1018.3 mb 0.00 in0.0 mm 0.00 in0.0 mm 0.00 in0.0 mm
04:29 AM 50.5°F10.3°C 45.1°F7.3°C 62% 3.6 mph NNW5.8 kmh NNW 3.7 mph6.0 kmh 30.07 in1018.3 mb 0.00 in0.0 mm 0.00 in0.0 mm 0.00 in0.0 mm
04:32 AM 50.5°F10.3°C 44.9°F7.2°C 62% 2.4 mph NNW3.9 kmh NNW 2.4 mph3.9 kmh 30.07 in1018.3 mb 0.00 in0.0 mm 0.00 in0.0 mm 0.00 in0.0 mm
04:35 AM 50.6°F10.3°C 45.0°F7.2°C 62% 1.6 mph E2.6 kmh E 1.6 mph2.6 kmh 30.07 in1018.3 mb 0.00 in0.0 mm 0.00 in0.0 mm 0.00 in0.0 mm
04:38 AM 50.8°F10.4°C 45.0°F7.2°C 62% 2.4 mph NNW3.9 kmh NNW 2.4 mph3.9 kmh 30.07 in1018.3 mb 0.00 in0.0 mm 0.00 in0.0 mm 0.00 in0.0 mm
04:41 AM 51.2°F10.7°C 44.9°F7.2°C 62% 2.8 mph ESE4.5 kmh ESE 2.8 mph4.5 kmh 30.07 in1018.3 mb 0.00 in0.0 mm 0.00 in0.0 mm 0.00 in0.0 mm
04:44 AM 51.1°F10.6°C 45.0°F7.2°C 61% 2.4 mph ENE3.9 kmh ENE 2.4 mph3.9 kmh 30.07 in1018.3 mb 0.00 in0.0 mm 0.00 in0.0 mm 0.00 in0.0 mm
04:47 AM 51.5°F10.8°C 44.8°F7.1°C 61% 4.0 mph ENE6.4 kmh ENE 4.0 mph6.4 kmh 30.07 in1018.3 mb 0.00 in0.0 mm 0.00 in0.0 mm 0.00 in0.0 mm
04:50 AM 51.5°F10.8°C 45.2°F7.3°C 62% 4.4 mph NNW7.1 kmh NNW 4.4 mph7.1 kmh 30.07 in1018.3 mb 0.00 in0.0 mm 0.00 in0.0 mm 0.00 in0.0 mm
04:53 AM 51.2°F10.7°C 45.1°F7.3°C 61% 3.6 mph E5.8 kmh E 3.6 mph5.8 kmh 30.07 in1018.3 mb 0.00 in0.0 mm 0.00 in0.0 mm 0.00 in0.0 mm
04:56 AM 51.6°F10.9°C 44.9°F7.2°C 61% 0.8 mph SE1.3 kmh SE 0.8 mph1.3 kmh 30.07 in1018.3 mb 0.00 in0.0 mm 0.00 in0.0 mm 0.00 in0.0 mm
04:59 AM 51.7°F10.9°C 45.2°F7.3°C 61% 2.4 mph NNW3.9 kmh NNW 2.4 mph3.9 kmh 30.07 in1018.3 mb 0.00 in0.0 mm 0.00 in0.0 mm 0.00 in0.0 mm
05:02 AM 51.7°F10.9°C 45.3°F7.4°C 60% 1.6 mph E2.6 kmh E 1.6 mph2.6 kmh 30.07 in1018.3 mb 0.00 in0.0 mm 0.00 in0.0 mm 0.00 in0.0 mm
05:05 AM 51.7°F10.9°C 45.2°F7.3°C 59% 3.6 mph E5.8 kmh E 3.6 mph5.8 kmh 30.07 in1018.3 mb 0.00 in0.0 mm 0.00 in0.0 mm 0.00 in0.0 mm
05:08 AM 52.1°F11.2°C 45.3°F7.4°C 59% 0.8 mph E1.3 kmh E 0.8 mph1.3 kmh 30.07 in1018.3 mb 0.00 in0.0 mm 0.00 in0.0 mm 0.00 in0.0 mm
05:11 AM 52.0°F11.1°C 45.7°F7.6°C 58% 2.0 mph ESE3.2 kmh ESE 2.0 mph3.2 kmh 30.07 in1018.3 mb 0.00 in0.0 mm 0.00 in0.0 mm 0.00 in0.0 mm
05:14 AM 52.3°F11.3°C 45.7°F7.6°C 57% 1.2 mph NNW1.9 kmh NNW 1.2 mph1.9 kmh 30.07 in1018.3 mb 0.00 in0.0 mm 0.00 in0.0 mm 0.00 in0.0 mm
05:17 AM 52.6°F11.4°C 45.2°F7.3°C 55% 2.0 mph E3.2 kmh E 2.0 mph3.2 kmh 30.07 in1018.3 mb 0.00 in0.0 mm 0.00 in0.0 mm 0.00 in0.0 mm
05:20 AM 53.3°F11.8°C 45.9°F7.7°C 55% 4.0 mph ESE6.4 kmh ESE 4.1 mph6.6 kmh 30.07 in1018.3 mb 0.00 in0.0 mm 0.00 in0.0 mm 0.00 in0.0 mm
05:23 AM 53.4°F11.9°C 45.8°F7.7°C 54% 2.4 mph E3.9 kmh E 2.4 mph3.9 kmh 30.07 in1018.3 mb 0.00 in0.0 mm 0.00 in0.0 mm 0.00 in0.0 mm
05:26 AM 53.4°F11.9°C 45.8°F7.7°C 53% 1.6 mph E2.6 kmh E 1.6 mph2.6 kmh 30.07 in1018.3 mb 0.00 in0.0 mm 0.00 in0.0 mm 0.00 in0.0 mm
05:29 AM 53.8°F12.1°C 46.3°F7.9°C 52% 1.6 mph NNW2.6 kmh NNW 1.6 mph2.6 kmh 30.07 in1018.3 mb 0.00 in0.0 mm 0.00 in0.0 mm 0.00 in0.0 mm
05:32 AM 54.4°F12.4°C 46.7°F8.2°C 52% 1.6 mph E2.6 kmh E 1.6 mph2.6 kmh 30.07 in1018.3 mb 0.00 in0.0 mm 0.00 in0.0 mm 0.00 in0.0 mm
05:35 AM 55.1°F12.8°C 46.4°F8.0°C 50% Calm Calm -- 30.07 in1018.3 mb 0.00 in0.0 mm 0.00 in0.0 mm 0.00 in0.0 mm
05:38 AM 55.5°F13.1°C 46.9°F8.3°C 50% 4.8 mph ESE7.7 kmh ESE 4.8 mph7.7 kmh 30.07 in1018.3 mb 0.00 in0.0 mm 0.00 in0.0 mm 0.00 in0.0 mm
05:41 AM 57.2°F14.0°C 46.5°F8.1°C 48% 6.5 mph SE10.5 kmh SE 6.5 mph10.5 kmh 30.07 in1018.3 mb 0.00 in0.0 mm 0.00 in0.0 mm 0.00 in0.0 mm
05:44 AM 58.0°F14.4°C 46.9°F8.3°C 49% 2.4 mph SE3.9 kmh SE 2.4 mph3.9 kmh 30.08 in1018.6 mb 0.00 in0.0 mm 0.00 in0.0 mm 0.00 in0.0 mm
05:47 AM 58.7°F14.8°C 46.0°F7.8°C 47% 4.8 mph SE7.7 kmh SE 4.8 mph7.7 kmh 30.08 in1018.6 mb 0.00 in0.0 mm 0.00 in0.0 mm 0.00 in0.0 mm
05:50 AM 59.9°F15.5°C 46.3°F7.9°C 47% 3.2 mph E5.1 kmh E 3.3 mph5.3 kmh 30.08 in1018.6 mb 0.00 in0.0 mm 0.00 in0.0 mm 0.00 in0.0 mm
05:53 AM 60.2°F15.7°C 46.4°F8.0°C 48% 5.6 mph ESE9.0 kmh ESE 5.6 mph9.0 kmh 30.08 in1018.6 mb 0.00 in0.0 mm 0.00 in0.0 mm 0.00 in0.0 mm
05:56 AM 61.0°F16.1°C 47.0°F8.3°C 48% 3.6 mph SE5.8 kmh SE 3.7 mph6.0 kmh 30.08 in1018.6 mb 0.00 in0.0 mm 0.00 in0.0 mm 0.00 in0.0 mm
05:59 AM 61.3°F16.3°C 46.6°F8.1°C 47% 4.8 mph SE7.7 kmh SE 4.9 mph7.9 kmh 30.08 in1018.6 mb 0.00 in0.0 mm 0.00 in0.0 mm 0.00 in0.0 mm
06:02 AM 61.5°F16.4°C 47.0°F8.3°C 47% 6.5 mph NNW10.5 kmh NNW 6.5 mph10.5 kmh 30.09 in1019.0 mb 0.00 in0.0 mm 0.00 in0.0 mm 0.00 in0.0 mm
06:05 AM 60.7°F15.9°C 47.7°F8.7°C 48% 2.0 mph ESE3.2 kmh ESE 2.0 mph3.2 kmh 30.08 in1018.6 mb 0.00 in0.0 mm 0.00 in0.0 mm 0.00 in0.0 mm
06:08 AM 61.5°F16.4°C 47.7°F8.7°C 46% 7.3 mph SE11.7 kmh SE 7.3 mph11.7 kmh 30.08 in1018.6 mb 0.00 in0.0 mm 0.00 in0.0 mm 0.00 in0.0 mm
06:11 AM 63.1°F17.3°C 46.9°F8.3°C 44% 5.3 mph ESE8.5 kmh ESE 5.3 mph8.5 kmh 30.08 in1018.6 mb 0.00 in0.0 mm 0.00 in0.0 mm 0.00 in0.0 mm
06:14 AM 61.8°F16.6°C 48.1°F8.9°C 46% 3.2 mph SE5.1 kmh SE 3.2 mph5.1 kmh 30.09 in1019.0 mb 0.00 in0.0 mm 0.00 in0.0 mm 0.00 in0.0 mm
06:17 AM 61.3°F16.3°C 48.4°F9.1°C 45% 2.0 mph ESE3.2 kmh ESE 2.0 mph3.2 kmh 30.08 in1018.6 mb 0.00 in0.0 mm 0.00 in0.0 mm 0.00 in0.0 mm
06:20 AM 62.2°F16.8°C 48.5°F9.2°C 43% 7.7 mph NNW12.4 kmh NNW 7.7 mph12.4 kmh 30.09 in1019.0 mb 0.00 in0.0 mm 0.00 in0.0 mm 0.00 in0.0 mm
06:23 AM 63.6°F17.6°C 48.4°F9.1°C 43% 4.8 mph NNW7.7 kmh NNW 4.9 mph7.9 kmh 30.09 in1019.0 mb 0.00 in0.0 mm 0.00 in0.0 mm 0.00 in0.0 mm
06:26 AM 62.9°F17.2°C 48.9°F9.4°C 42% 2.0 mph E3.2 kmh E 2.0 mph3.2 kmh 30.09 in1019.0 mb 0.00 in0.0 mm 0.00 in0.0 mm 0.00 in0.0 mm
06:29 AM 64.0°F17.8°C 49.1°F9.5°C 41% 2.0 mph NNW3.2 kmh NNW 2.0 mph3.2 kmh 30.09 in1019.0 mb 0.00 in0.0 mm 0.00 in0.0 mm 0.00 in0.0 mm
06:32 AM 64.9°F18.3°C 49.8°F9.9°C 42% 2.0 mph ESE3.2 kmh ESE 2.0 mph3.2 kmh 30.08 in1018.6 mb 0.00 in0.0 mm 0.00 in0.0 mm 0.00 in0.0 mm
06:35 AM 65.3°F18.5°C 48.7°F9.3°C 40% 7.3 mph ESE11.7 kmh ESE 7.3 mph11.7 kmh 30.08 in1018.6 mb 0.00 in0.0 mm 0.00 in0.0 mm 0.00 in0.0 mm
06:38 AM 63.6°F17.6°C 49.3°F9.6°C 41% 2.0 mph E3.2 kmh E 2.0 mph3.2 kmh 30.09 in1019.0 mb 0.00 in0.0 mm 0.00 in0.0 mm 0.00 in0.0 mm
06:41 AM 63.1°F17.3°C 49.9°F9.9°C 41% 2.4 mph ESE3.9 kmh ESE 2.4 mph3.9 kmh 30.09 in1019.0 mb 0.00 in0.0 mm 0.00 in0.0 mm 0.00 in0.0 mm
06:44 AM 66.1°F18.9°C 49.5°F9.7°C 40% 5.2 mph SE8.4 kmh SE 5.2 mph8.4 kmh 30.09 in1019.0 mb 0.00 in0.0 mm 0.00 in0.0 mm 0.00 in0.0 mm
06:47 AM 66.0°F18.9°C 49.4°F9.7°C 40% 7.7 mph ESE12.4 kmh ESE 7.7 mph12.4 kmh 30.09 in1019.0 mb 0.00 in0.0 mm 0.00 in0.0 mm 0.00 in0.0 mm
06:50 AM 66.8°F19.3°C 49.1°F9.5°C 41% 4.8 mph NNW7.7 kmh NNW 4.9 mph7.9 kmh 30.09 in1019.0 mb 0.00 in0.0 mm 0.00 in0.0 mm 0.00 in0.0 mm
06:53 AM 66.3°F19.1°C 48.9°F9.4°C 42% 7.6 mph SE12.2 kmh SE 7.6 mph12.2 kmh 30.09 in1019.0 mb 0.00 in0.0 mm 0.00 in0.0 mm 0.00 in0.0 mm
06:56 AM 66.1°F18.9°C 48.5°F9.2°C 41% 4.8 mph NNW7.7 kmh NNW 4.8 mph7.7 kmh 30.09 in1019.0 mb 0.00 in0.0 mm 0.00 in0.0 mm 0.00 in0.0 mm
06:59 AM 65.2°F18.4°C 49.5°F9.7°C 43% 3.2 mph NE5.1 kmh NE 3.2 mph5.1 kmh 30.09 in1019.0 mb 0.00 in0.0 mm 0.00 in0.0 mm 0.00 in0.0 mm
07:02 AM 66.3°F19.1°C 49.9°F9.9°C 43% 1.6 mph E2.6 kmh E 1.6 mph2.6 kmh 30.10 in1019.3 mb 0.00 in0.0 mm 0.00 in0.0 mm 0.00 in0.0 mm
07:05 AM 66.7°F19.3°C 49.1°F9.5°C 41% 5.3 mph E8.5 kmh E 5.3 mph8.5 kmh 30.10 in1019.3 mb 0.00 in0.0 mm 0.00 in0.0 mm 0.00 in0.0 mm
07:08 AM 66.8°F19.3°C 49.4°F9.7°C 41% 6.1 mph NNW9.8 kmh NNW 6.1 mph9.8 kmh 30.10 in1019.3 mb 0.00 in0.0 mm 0.00 in0.0 mm 0.00 in0.0 mm
07:11 AM 67.0°F19.4°C 49.4°F9.7°C 41% 5.6 mph NNW9.0 kmh NNW 5.6 mph9.0 kmh 30.09 in1019.0 mb 0.00 in0.0 mm 0.00 in0.0 mm 0.00 in0.0 mm
07:14 AM 66.7°F19.3°C 48.8°F9.3°C 41% 6.9 mph ESE11.1 kmh ESE 6.9 mph11.1 kmh 30.09 in1019.0 mb 0.00 in0.0 mm 0.00 in0.0 mm 0.00 in0.0 mm
07:17 AM 66.7°F19.3°C 49.2°F9.6°C 42% 4.4 mph SE7.1 kmh SE 4.4 mph7.1 kmh 30.09 in1019.0 mb 0.00 in0.0 mm 0.00 in0.0 mm 0.00 in0.0 mm
07:20 AM 66.4°F19.1°C 48.6°F9.2°C 42% 7.1 mph ESE11.4 kmh ESE 7.2 mph11.6 kmh 30.09 in1019.0 mb 0.00 in0.0 mm 0.00 in0.0 mm 0.00 in0.0 mm
07:23 AM 66.4°F19.1°C 48.7°F9.3°C 43% 4.9 mph SE7.9 kmh SE 4.9 mph7.9 kmh 30.09 in1019.0 mb 0.00 in0.0 mm 0.00 in0.0 mm 0.00 in0.0 mm
07:26 AM 66.0°F18.9°C 49.4°F9.7°C 44% 4.4 mph SE7.1 kmh SE 4.5 mph7.2 kmh 30.09 in1019.0 mb 0.00 in0.0 mm 0.00 in0.0 mm 0.00 in0.0 mm
07:29 AM 65.9°F18.8°C 49.3°F9.6°C 43% 5.6 mph NNW9.0 kmh NNW 5.6 mph9.0 kmh 30.09 in1019.0 mb 0.00 in0.0 mm 0.00 in0.0 mm 0.00 in0.0 mm
07:32 AM 65.3°F18.5°C 49.1°F9.5°C 44% 4.9 mph SE7.9 kmh SE 4.9 mph7.9 kmh 30.09 in1019.0 mb 0.00 in0.0 mm 0.00 in0.0 mm 0.00 in0.0 mm
07:35 AM 65.4°F18.6°C 48.9°F9.4°C 44% 5.3 mph SE8.5 kmh SE 5.3 mph8.5 kmh 30.09 in1019.0 mb 0.00 in0.0 mm 0.00 in0.0 mm 0.00 in0.0 mm
07:38 AM 64.9°F18.3°C 48.6°F9.2°C 44% 6.3 mph SE10.1 kmh SE 6.4 mph10.3 kmh 30.09 in1019.0 mb 0.00 in0.0 mm 0.00 in0.0 mm 0.00 in0.0 mm
07:41 AM 64.7°F18.2°C 48.2°F9.0°C 44% 4.9 mph SE7.9 kmh SE 4.9 mph7.9 kmh 30.09 in1019.0 mb 0.00 in0.0 mm 0.00 in0.0 mm 0.00 in0.0 mm
07:44 AM 64.3°F17.9°C 48.3°F9.1°C 44% 6.0 mph SE9.7 kmh SE 6.0 mph9.7 kmh 30.09 in1019.0 mb 0.00 in0.0 mm 0.00 in0.0 mm 0.00 in0.0 mm
07:47 AM 64.7°F18.2°C 48.8°F9.3°C 46% 2.8 mph SE4.5 kmh SE 2.9 mph4.7 kmh 30.09 in1019.0 mb 0.00 in0.0 mm 0.00 in0.0 mm 0.00 in0.0 mm
07:50 AM 65.1°F18.4°C 49.2°F9.6°C 45% 3.9 mph SE6.3 kmh SE 3.9 mph6.3 kmh 30.09 in1019.0 mb 0.00 in0.0 mm 0.00 in0.0 mm 0.00 in0.0 mm
07:53 AM 64.5°F18.1°C 48.8°F9.3°C 45% 4.4 mph NNW7.1 kmh NNW 4.4 mph7.1 kmh 30.09 in1019.0 mb 0.00 in0.0 mm 0.00 in0.0 mm 0.00 in0.0 mm
07:56 AM 64.7°F18.2°C 48.5°F9.2°C 44% 1.6 mph SE2.6 kmh SE 1.6 mph2.6 kmh 30.09 in1019.0 mb 0.00 in0.0 mm 0.00 in0.0 mm 0.00 in0.0 mm
07:59 AM 65.0°F18.3°C 48.2°F9.0°C 44% 8.9 mph SE14.3 kmh SE 8.9 mph14.3 kmh 30.09 in1019.0 mb 0.00 in0.0 mm 0.00 in0.0 mm 0.00 in0.0 mm
08:02 AM 65.1°F18.4°C 48.3°F9.1°C 44% Calm Calm -- 30.09 in1019.0 mb 0.00 in0.0 mm 0.00 in0.0 mm 0.00 in0.0 mm
08:05 AM 64.6°F18.1°C 48.0°F8.9°C 44% 5.5 mph SE8.9 kmh SE 5.6 mph9.0 kmh 30.09 in1019.0 mb 0.00 in0.0 mm 0.00 in0.0 mm 0.00 in0.0 mm
08:08 AM 64.5°F18.1°C 48.5°F9.2°C 44% 5.6 mph ESE9.0 kmh ESE 5.6 mph9.0 kmh 30.09 in1019.0 mb 0.00 in0.0 mm 0.00 in0.0 mm 0.00 in0.0 mm
08:11 AM 63.6°F17.6°C 48.4°F9.1°C 44% 1.6 mph NE2.6 kmh NE 1.6 mph2.6 kmh 30.09 in1019.0 mb 0.00 in0.0 mm 0.00 in0.0 mm 0.00 in0.0 mm
08:14 AM 63.4°F17.4°C 49.2°F9.6°C 45% 4.8 mph E7.7 kmh E 4.9 mph7.9 kmh 30.08 in1018.6 mb 0.00 in0.0 mm 0.00 in0.0 mm 0.00 in0.0 mm
08:17 AM 63.8°F17.7°C 48.4°F9.1°C 44% 2.4 mph NNW3.9 kmh NNW 2.4 mph3.9 kmh 30.08 in1018.6 mb 0.00 in0.0 mm 0.00 in0.0 mm 0.00 in0.0 mm
08:20 AM 63.8°F17.7°C 47.9°F8.8°C 45% 7.7 mph SE12.4 kmh SE 7.7 mph12.4 kmh 30.09 in1019.0 mb 0.00 in0.0 mm 0.00 in0.0 mm 0.00 in0.0 mm
08:23 AM 63.8°F17.7°C 48.6°F9.2°C 45% 4.0 mph SE6.4 kmh SE 4.1 mph6.6 kmh 30.09 in1019.0 mb 0.00 in0.0 mm 0.00 in0.0 mm 0.00 in0.0 mm
08:26 AM 63.8°F17.7°C 47.9°F8.8°C 44% 2.8 mph SE4.5 kmh SE 2.9 mph4.7 kmh 30.08 in1018.6 mb 0.00 in0.0 mm 0.00 in0.0 mm 0.00 in0.0 mm
08:29 AM 63.7°F17.6°C 48.1°F8.9°C 45% 4.4 mph SE7.1 kmh SE 4.5 mph7.2 kmh 30.08 in1018.6 mb 0.00 in0.0 mm 0.00 in0.0 mm 0.00 in0.0 mm
08:32 AM 63.5°F17.5°C 47.9°F8.8°C 45% 3.2 mph ESE5.1 kmh ESE 3.3 mph5.3 kmh 30.09 in1019.0 mb 0.00 in0.0 mm 0.00 in0.0 mm 0.00 in0.0 mm
08:35 AM 64.0°F17.8°C 47.8°F8.8°C 45% 7.5 mph ESE12.1 kmh ESE 7.6 mph12.2 kmh 30.09 in1019.0 mb 0.00 in0.0 mm 0.00 in0.0 mm 0.00 in0.0 mm
08:38 AM 63.6°F17.6°C 47.9°F8.8°C 45% 4.4 mph SE7.1 kmh SE 4.5 mph7.2 kmh 30.08 in1018.6 mb 0.00 in0.0 mm 0.00 in0.0 mm 0.00 in0.0 mm
08:41 AM 63.4°F17.4°C 47.7°F8.7°C 45% 7.3 mph SE11.7 kmh SE 7.3 mph11.7 kmh 30.08 in1018.6 mb 0.00 in0.0 mm 0.00 in0.0 mm 0.00 in0.0 mm
08:44 AM 63.8°F17.7°C 48.1°F8.9°C 46% 5.2 mph SE8.4 kmh SE 5.2 mph8.4 kmh 30.08 in1018.6 mb 0.00 in0.0 mm 0.00 in0.0 mm 0.00 in0.0 mm
08:47 AM 63.7°F17.6°C 48.4°F9.1°C 46% 2.8 mph NNW4.5 kmh NNW 2.8 mph4.5 kmh 30.08 in1018.6 mb 0.00 in0.0 mm 0.00 in0.0 mm 0.00 in0.0 mm
08:50 AM 63.7°F17.6°C 48.1°F8.9°C 45% 6.9 mph ESE11.1 kmh ESE 6.9 mph11.1 kmh 30.08 in1018.6 mb 0.00 in0.0 mm 0.00 in0.0 mm 0.00 in0.0 mm
08:53 AM 63.6°F17.6°C 47.5°F8.6°C 44% 4.4 mph SE7.1 kmh SE 4.5 mph7.2 kmh 30.08 in1018.6 mb 0.00 in0.0 mm 0.00 in0.0 mm 0.00 in0.0 mm
08:56 AM 63.4°F17.4°C 47.8°F8.8°C 45% 2.8 mph NNW4.5 kmh NNW 2.9 mph4.7 kmh 30.08 in1018.6 mb 0.00 in0.0 mm 0.00 in0.0 mm 0.00 in0.0 mm
08:59 AM 63.3°F17.4°C 47.7°F8.7°C 45% 11.7 mph SE18.8 kmh SE 11.8 mph19.0 kmh 30.08 in1018.6 mb 0.00 in0.0 mm 0.00 in0.0 mm 0.00 in0.0 mm
09:02 AM 63.7°F17.6°C 47.7°F8.7°C 45% 0.4 mph SE0.6 kmh SE 0.4 mph0.6 kmh 30.08 in1018.6 mb 0.00 in0.0 mm 0.00 in0.0 mm 0.00 in0.0 mm
09:05 AM 63.7°F17.6°C 47.9°F8.8°C 46% 8.9 mph ESE14.3 kmh ESE 9.0 mph14.5 kmh 30.08 in1018.6 mb 0.00 in0.0 mm 0.00 in0.0 mm 0.00 in0.0 mm
09:08 AM 63.7°F17.6°C 47.3°F8.5°C 45% 6.9 mph SE11.1 kmh SE 6.9 mph11.1 kmh 30.08 in1018.6 mb 0.00 in0.0 mm 0.00 in0.0 mm 0.00 in0.0 mm
09:11 AM 64.3°F17.9°C 47.5°F8.6°C 45% 6.4 mph SE10.3 kmh SE 6.4 mph10.3 kmh 30.08 in1018.6 mb 0.00 in0.0 mm 0.00 in0.0 mm 0.00 in0.0 mm
09:14 AM 64.3°F17.9°C 48.1°F8.9°C 45% 5.9 mph NNW9.5 kmh NNW 6.0 mph9.7 kmh 30.08 in1018.6 mb 0.00 in0.0 mm 0.00 in0.0 mm 0.00 in0.0 mm
09:17 AM 64.0°F17.8°C 46.8°F8.2°C 44% 8.1 mph SE13.0 kmh SE 8.1 mph13.0 kmh 30.08 in1018.6 mb 0.00 in0.0 mm 0.00 in0.0 mm 0.00 in0.0 mm
09:20 AM 64.1°F17.8°C 47.5°F8.6°C 45% 3.6 mph SE5.8 kmh SE 3.7 mph6.0 kmh 30.08 in1018.6 mb 0.00 in0.0 mm 0.00 in0.0 mm 0.00 in0.0 mm
09:23 AM 64.5°F18.1°C 48.0°F8.9°C 45% 2.8 mph SE4.5 kmh SE 2.9 mph4.7 kmh 30.08 in1018.6 mb 0.00 in0.0 mm 0.00 in0.0 mm 0.00 in0.0 mm
09:26 AM 64.9°F18.3°C 48.2°F9.0°C 45% 6.4 mph SE10.3 kmh SE 6.5 mph10.5 kmh 30.08 in1018.6 mb 0.00 in0.0 mm 0.00 in0.0 mm 0.00 in0.0 mm
09:29 AM 65.1°F18.4°C 47.9°F8.8°C 45% 4.4 mph NNW7.1 kmh NNW 4.5 mph7.2 kmh 30.08 in1018.6 mb 0.00 in0.0 mm 0.00 in0.0 mm 0.00 in0.0 mm
09:32 AM 65.6°F18.7°C 48.6°F9.2°C 46% 2.4 mph ENE3.9 kmh ENE 2.4 mph3.9 kmh 30.08 in1018.6 mb 0.00 in0.0 mm 0.00 in0.0 mm 0.00 in0.0 mm
09:38 AM 65.8°F18.8°C 47.4°F8.6°C 44% 8.1 mph SE13.0 kmh SE 8.1 mph13.0 kmh 30.08 in1018.6 mb 0.00 in0.0 mm 0.00 in0.0 mm 0.00 in0.0 mm
09:41 AM 66.1°F18.9°C 46.7°F8.2°C 42% 6.1 mph ESE9.8 kmh ESE 6.1 mph9.8 kmh 30.08 in1018.6 mb 0.00 in0.0 mm 0.00 in0.0 mm 0.00 in0.0 mm
09:44 AM 66.3°F19.1°C 46.7°F8.2°C 42% 8.3 mph SE13.4 kmh SE 8.4 mph13.5 kmh 30.08 in1018.6 mb 0.00 in0.0 mm 0.00 in0.0 mm 0.00 in0.0 mm
09:47 AM 66.5°F19.2°C 47.3°F8.5°C 43% 3.6 mph SE5.8 kmh SE 3.7 mph6.0 kmh 30.08 in1018.6 mb 0.00 in0.0 mm 0.00 in0.0 mm 0.00 in0.0 mm
09:50 AM 66.8°F19.3°C 48.3°F9.1°C 45% 7.5 mph SE12.1 kmh SE 7.6 mph12.2 kmh 30.08 in1018.6 mb 0.00 in0.0 mm 0.00 in0.0 mm 0.00 in0.0 mm
09:53 AM 66.0°F18.9°C 47.1°F8.4°C 43% 8.0 mph NNW12.9 kmh NNW 8.0 mph12.9 kmh 30.08 in1018.6 mb 0.00 in0.0 mm 0.00 in0.0 mm 0.00 in0.0 mm
09:56 AM 66.4°F19.1°C 47.9°F8.8°C 44% 4.0 mph NNW6.4 kmh NNW 4.0 mph6.4 kmh 30.08 in1018.6 mb 0.00 in0.0 mm 0.00 in0.0 mm 0.00 in0.0 mm
09:59 AM 67.4°F19.7°C 48.4°F9.1°C 44% 5.6 mph ESE9.0 kmh ESE 5.6 mph9.0 kmh 30.08 in1018.6 mb 0.00 in0.0 mm 0.00 in0.0 mm 0.00 in0.0 mm
10:02 AM 67.1°F19.5°C 48.0°F8.9°C 43% 12.9 mph ESE20.8 kmh ESE 13.1 mph21.1 kmh 30.08 in1018.6 mb 0.00 in0.0 mm 0.00 in0.0 mm 0.00 in0.0 mm
10:05 AM 66.8°F19.3°C 47.4°F8.6°C 42% 10.9 mph NNW17.5 kmh NNW 11.0 mph17.7 kmh 30.08 in1018.6 mb 0.00 in0.0 mm 0.00 in0.0 mm 0.00 in0.0 mm
10:08 AM 67.4°F19.7°C 48.4°F9.1°C 42% 4.0 mph ESE6.4 kmh ESE 4.0 mph6.4 kmh 30.08 in1018.6 mb 0.00 in0.0 mm 0.00 in0.0 mm 0.00 in0.0 mm
10:11 AM 67.1°F19.5°C 48.3°F9.1°C 41% 4.4 mph SE7.1 kmh SE 4.5 mph7.2 kmh 30.08 in1018.6 mb 0.00 in0.0 mm 0.00 in0.0 mm 0.00 in0.0 mm
10:14 AM 67.2°F19.6°C 48.2°F9.0°C 41% 9.3 mph NNW15.0 kmh NNW 9.4 mph15.1 kmh 30.07 in1018.3 mb 0.00 in0.0 mm 0.00 in0.0 mm 0.00 in0.0 mm
10:17 AM 67.0°F19.4°C 48.6°F9.2°C 41% 2.8 mph SE4.5 kmh SE 2.9 mph4.7 kmh 30.07 in1018.3 mb 0.00 in0.0 mm 0.00 in0.0 mm 0.00 in0.0 mm
10:20 AM 67.3°F19.6°C 48.7°F9.3°C 41% 9.3 mph SE15.0 kmh SE 9.4 mph15.1 kmh 30.07 in1018.3 mb 0.00 in0.0 mm 0.00 in0.0 mm 0.00 in0.0 mm
10:23 AM 67.3°F19.6°C 48.3°F9.1°C 40% 7.3 mph SE11.7 kmh SE 7.3 mph11.7 kmh 30.07 in1018.3 mb 0.00 in0.0 mm 0.00 in0.0 mm 0.00 in0.0 mm
10:26 AM 68.1°F20.1°C 50.7°F10.4°C 43% 1.2 mph E1.9 kmh E 1.2 mph1.9 kmh 30.08 in1018.6 mb 0.00 in0.0 mm 0.00 in0.0 mm 0.00 in0.0 mm
10:29 AM 68.1°F20.1°C 49.6°F9.8°C 41% 7.7 mph SE12.4 kmh SE 7.7 mph12.4 kmh 30.08 in1018.6 mb 0.00 in0.0 mm 0.00 in0.0 mm 0.00 in0.0 mm
10:32 AM 68.0°F20.0°C 49.3°F9.6°C 40% 9.9 mph NNW15.9 kmh NNW 10.0 mph16.1 kmh 30.07 in1018.3 mb 0.00 in0.0 mm 0.00 in0.0 mm 0.00 in0.0 mm
10:35 AM 68.1°F20.1°C 48.9°F9.4°C 39% 2.8 mph SE4.5 kmh SE 2.9 mph4.7 kmh 30.08 in1018.6 mb 0.00 in0.0 mm 0.00 in0.0 mm 0.00 in0.0 mm
10:38 AM 68.2°F20.1°C 50.2°F10.1°C 40% 4.4 mph SE7.1 kmh SE 4.5 mph7.2 kmh 30.08 in1018.6 mb 0.00 in0.0 mm 0.00 in0.0 mm 0.00 in0.0 mm
10:41 AM 68.2°F20.1°C 49.8°F9.9°C 39% 8.5 mph ESE13.7 kmh ESE 8.5 mph13.7 kmh 30.08 in1018.6 mb 0.00 in0.0 mm 0.00 in0.0 mm 0.00 in0.0 mm
10:44 AM 68.3°F20.2°C 49.6°F9.8°C 39% 7.2 mph SE11.6 kmh SE 7.3 mph11.7 kmh 30.08 in1018.6 mb 0.00 in0.0 mm 0.00 in0.0 mm 0.00 in0.0 mm
10:47 AM 69.2°F20.7°C 50.7°F10.4°C 40% 2.4 mph ESE3.9 kmh ESE 2.4 mph3.9 kmh 30.08 in1018.6 mb 0.00 in0.0 mm 0.00 in0.0 mm 0.00 in0.0 mm
10:50 AM 68.5°F20.3°C 50.5°F10.3°C 39% 6.1 mph SE9.8 kmh SE 6.1 mph9.8 kmh 30.08 in1018.6 mb 0.00 in0.0 mm 0.00 in0.0 mm 0.00 in0.0 mm
10:53 AM 68.9°F20.5°C 51.0°F10.6°C 39% 4.4 mph SE7.1 kmh SE 4.4 mph7.1 kmh 30.08 in1018.6 mb 0.00 in0.0 mm 0.00 in0.0 mm 0.00 in0.0 mm
10:56 AM 68.6°F20.3°C 49.0°F9.4°C 37% 11.1 mph ESE17.9 kmh ESE 11.2 mph18.0 kmh 30.08 in1018.6 mb 0.00 in0.0 mm 0.00 in0.0 mm 0.00 in0.0 mm
10:59 AM 68.7°F20.4°C 50.1°F10.1°C 37% 3.6 mph ESE5.8 kmh ESE 3.6 mph5.8 kmh 30.08 in1018.6 mb 0.00 in0.0 mm 0.00 in0.0 mm 0.00 in0.0 mm
11:02 AM 68.6°F20.3°C 49.8°F9.9°C 37% 9.2 mph NNW14.8 kmh NNW 9.2 mph14.8 kmh 30.08 in1018.6 mb 0.00 in0.0 mm 0.00 in0.0 mm 0.00 in0.0 mm
11:05 AM 69.2°F20.7°C 49.4°F9.7°C 37% 7.1 mph NNW11.4 kmh NNW 7.2 mph11.6 kmh 30.08 in1018.6 mb 0.00 in0.0 mm 0.00 in0.0 mm 0.00 in0.0 mm
11:08 AM 68.5°F20.3°C 48.8°F9.3°C 36% 6.0 mph ESE9.7 kmh ESE 6.0 mph9.7 kmh 30.08 in1018.6 mb 0.00 in0.0 mm 0.00 in0.0 mm 0.00 in0.0 mm
11:11 AM 68.5°F20.3°C 49.8°F9.9°C 37% 9.7 mph NNW15.6 kmh NNW 9.7 mph15.6 kmh 30.08 in1018.6 mb 0.00 in0.0 mm 0.00 in0.0 mm 0.00 in0.0 mm
11:14 AM 69.0°F20.6°C 49.7°F9.8°C 37% 9.7 mph ESE15.6 kmh ESE 9.8 mph15.8 kmh 30.08 in1018.6 mb 0.00 in0.0 mm 0.00 in0.0 mm 0.00 in0.0 mm
11:17 AM 68.8°F20.4°C 49.1°F9.5°C 36% 6.0 mph NNW9.7 kmh NNW 6.1 mph9.8 kmh 30.08 in1018.6 mb 0.00 in0.0 mm 0.00 in0.0 mm 0.00 in0.0 mm
11:20 AM 68.0°F20.0°C 49.0°F9.4°C 35% 5.6 mph NNW9.0 kmh NNW 5.6 mph9.0 kmh 30.08 in1018.6 mb 0.00 in0.0 mm 0.00 in0.0 mm 0.00 in0.0 mm
11:23 AM 69.1°F20.6°C 50.1°F10.1°C 36% 3.6 mph NNW5.8 kmh NNW 3.7 mph6.0 kmh 30.08 in1018.6 mb 0.00 in0.0 mm 0.00 in0.0 mm 0.00 in0.0 mm
11:26 AM 69.4°F20.8°C 50.4°F10.2°C 35% 3.6 mph E5.8 kmh E 3.6 mph5.8 kmh 30.08 in1018.6 mb 0.00 in0.0 mm 0.00 in0.0 mm 0.00 in0.0 mm
11:29 AM 69.5°F20.8°C 51.3°F10.7°C 36% 4.0 mph SE6.4 kmh SE 4.1 mph6.6 kmh 30.08 in1018.6 mb 0.00 in0.0 mm 0.00 in0.0 mm 0.00 in0.0 mm
11:32 AM 69.4°F20.8°C 50.8°F10.4°C 35% 7.3 mph SE11.7 kmh SE 7.3 mph11.7 kmh 30.08 in1018.6 mb 0.00 in0.0 mm 0.00 in0.0 mm 0.00 in0.0 mm
11:35 AM 69.2°F20.7°C 49.7°F9.8°C 35% 10.5 mph SE16.9 kmh SE 10.6 mph17.1 kmh 30.08 in1018.6 mb 0.00 in0.0 mm 0.00 in0.0 mm 0.00 in0.0 mm
11:38 AM 69.1°F20.6°C 48.8°F9.3°C 35% 4.4 mph SE7.1 kmh SE 4.4 mph7.1 kmh 30.08 in1018.6 mb 0.00 in0.0 mm 0.00 in0.0 mm 0.00 in0.0 mm
11:41 AM 69.2°F20.7°C 49.3°F9.6°C 35% 7.6 mph SE12.2 kmh SE 7.6 mph12.2 kmh 30.08 in1018.6 mb 0.00 in0.0 mm 0.00 in0.0 mm 0.00 in0.0 mm
11:44 AM 69.6°F20.9°C 50.5°F10.3°C 36% 1.6 mph SSE2.6 kmh SSE 1.6 mph2.6 kmh 30.07 in1018.3 mb 0.00 in0.0 mm 0.00 in0.0 mm 0.00 in0.0 mm
11:50 AM 69.4°F20.8°C 50.0°F10.0°C 35% 7.5 mph SE12.1 kmh SE 7.6 mph12.2 kmh 30.07 in1018.3 mb 0.00 in0.0 mm 0.00 in0.0 mm 0.00 in0.0 mm
11:53 AM 69.9°F21.1°C 50.7°F10.4°C 36% 13.7 mph ESE22.0 kmh ESE 13.9 mph22.4 kmh 30.07 in1018.3 mb 0.00 in0.0 mm 0.00 in0.0 mm 0.00 in0.0 mm
11:56 AM 69.6°F20.9°C 50.2°F10.1°C 36% 4.0 mph NNW6.4 kmh NNW 4.1 mph6.6 kmh 30.07 in1018.3 mb 0.00 in0.0 mm 0.00 in0.0 mm 0.00 in0.0 mm
11:59 AM 70.1°F21.2°C 50.6°F10.3°C 35% 9.9 mph SE15.9 kmh SE 10.0 mph16.1 kmh 30.07 in1018.3 mb 0.00 in0.0 mm 0.00 in0.0 mm 0.00 in0.0 mm
12:02 PM 69.9°F21.1°C 49.6°F9.8°C 34% 7.7 mph NNW12.4 kmh NNW 7.7 mph12.4 kmh 30.08 in1018.6 mb 0.00 in0.0 mm 0.00 in0.0 mm 0.00 in0.0 mm
12:05 PM 69.8°F21.0°C 49.8°F9.9°C 35% 7.9 mph SE12.7 kmh SE 8.0 mph12.9 kmh 30.08 in1018.6 mb 0.00 in0.0 mm 0.00 in0.0 mm 0.00 in0.0 mm
12:08 PM 69.9°F21.1°C 49.9°F9.9°C 35% 3.6 mph S5.8 kmh S 3.7 mph6.0 kmh 30.07 in1018.3 mb 0.00 in0.0 mm 0.00 in0.0 mm 0.00 in0.0 mm
12:11 PM 70.0°F21.1°C 49.7°F9.8°C 34% 7.1 mph SSE11.4 kmh SSE 7.2 mph11.6 kmh 30.08 in1018.6 mb 0.00 in0.0 mm 0.00 in0.0 mm 0.00 in0.0 mm
12:14 PM 69.8°F21.0°C 48.6°F9.2°C 34% 8.0 mph SE12.9 kmh SE 8.0 mph12.9 kmh 30.07 in1018.3 mb 0.00 in0.0 mm 0.00 in0.0 mm 0.00 in0.0 mm
12:17 PM 70.5°F21.4°C 50.0°F10.0°C 35% 7.3 mph SE11.7 kmh SE 7.3 mph11.7 kmh 30.07 in1018.3 mb 0.00 in0.0 mm 0.00 in0.0 mm 0.00 in0.0 mm
12:20 PM 70.8°F21.6°C 50.4°F10.2°C 35% 5.9 mph SE9.5 kmh SE 6.0 mph9.7 kmh 30.07 in1018.3 mb 0.00 in0.0 mm 0.00 in0.0 mm 0.00 in0.0 mm
12:23 PM 70.4°F21.3°C 49.4°F9.7°C 34% 8.5 mph SE13.7 kmh SE 8.6 mph13.8 kmh 30.07 in1018.3 mb 0.00 in0.0 mm 0.00 in0.0 mm 0.00 in0.0 mm
12:26 PM 70.6°F21.4°C 49.9°F9.9°C 35% 4.0 mph SE6.4 kmh SE 4.1 mph6.6 kmh 30.07 in1018.3 mb 0.00 in0.0 mm 0.00 in0.0 mm 0.00 in0.0 mm
12:29 PM 70.6°F21.4°C 49.4°F9.7°C 33% 12.9 mph SE20.8 kmh SE 13.1 mph21.1 kmh 30.07 in1018.3 mb 0.00 in0.0 mm 0.00 in0.0 mm 0.00 in0.0 mm
12:32 PM 70.7°F21.5°C 50.0°F10.0°C 34% 6.4 mph ESE10.3 kmh ESE 6.4 mph10.3 kmh 30.07 in1018.3 mb 0.00 in0.0 mm 0.00 in0.0 mm 0.00 in0.0 mm
12:35 PM 71.2°F21.8°C 50.2°F10.1°C 34% 9.6 mph NNW15.4 kmh NNW 9.6 mph15.4 kmh 30.07 in1018.3 mb 0.00 in0.0 mm 0.00 in0.0 mm 0.00 in0.0 mm
12:38 PM 70.7°F21.5°C 51.9°F11.1°C 35% 0.8 mph E1.3 kmh E 0.8 mph1.3 kmh 30.07 in1018.3 mb 0.00 in0.0 mm 0.00 in0.0 mm 0.00 in0.0 mm
12:41 PM 70.8°F21.6°C 49.8°F9.9°C 32% 9.7 mph SE15.6 kmh SE 9.7 mph15.6 kmh 30.07 in1018.3 mb 0.00 in0.0 mm 0.00 in0.0 mm 0.00 in0.0 mm
12:44 PM 70.6°F21.4°C 49.8°F9.9°C 33% 9.7 mph SE15.6 kmh SE 9.8 mph15.8 kmh 30.07 in1018.3 mb 0.00 in0.0 mm 0.00 in0.0 mm 0.00 in0.0 mm
12:47 PM 71.2°F21.8°C 50.0°F10.0°C 34% 2.4 mph SE3.9 kmh SE 2.4 mph3.9 kmh 30.07 in1018.3 mb 0.00 in0.0 mm 0.00 in0.0 mm 0.00 in0.0 mm
12:50 PM 71.3°F21.8°C 50.1°F10.1°C 33% 5.6 mph NNW9.0 kmh NNW 5.7 mph9.2 kmh 30.07 in1018.3 mb 0.00 in0.0 mm 0.00 in0.0 mm 0.00 in0.0 mm
12:53 PM 71.0°F21.7°C 48.5°F9.2°C 32% 3.6 mph NNW5.8 kmh NNW 3.7 mph6.0 kmh 30.07 in1018.3 mb 0.00 in0.0 mm 0.00 in0.0 mm 0.00 in0.0 mm
12:56 PM 71.4°F21.9°C 49.8°F9.9°C 33% 8.4 mph ESE13.5 kmh ESE 8.4 mph13.5 kmh 30.07 in1018.3 mb 0.00 in0.0 mm 0.00 in0.0 mm 0.00 in0.0 mm
12:59 PM 70.7°F21.5°C 49.8°F9.9°C 33% 10.7 mph ESE17.2 kmh ESE 10.8 mph17.4 kmh 30.07 in1018.3 mb 0.00 in0.0 mm 0.00 in0.0 mm 0.00 in0.0 mm
01:02 PM 71.6°F22.0°C 50.5°F10.3°C 33% 5.2 mph NNW8.4 kmh NNW 5.2 mph8.4 kmh 30.07 in1018.3 mb 0.00 in0.0 mm 0.00 in0.0 mm 0.00 in0.0 mm
01:05 PM 71.8°F22.1°C 50.7°F10.4°C 33% 1.2 mph SE1.9 kmh SE 1.2 mph1.9 kmh 30.07 in1018.3 mb 0.00 in0.0 mm 0.00 in0.0 mm 0.00 in0.0 mm
01:08 PM 71.3°F21.8°C 50.4°F10.2°C 32% 3.2 mph SE5.1 kmh SE 3.3 mph5.3 kmh 30.07 in1018.3 mb 0.00 in0.0 mm 0.00 in0.0 mm 0.00 in0.0 mm
01:11 PM 72.1°F22.3°C 50.6°F10.3°C 32% 1.6 mph E2.6 kmh E 1.6 mph2.6 kmh 30.07 in1018.3 mb 0.00 in0.0 mm 0.00 in0.0 mm 0.00 in0.0 mm
01:14 PM 72.5°F22.5°C 51.7°F10.9°C 33% 1.6 mph NNW2.6 kmh NNW 1.6 mph2.6 kmh 30.07 in1018.3 mb 0.00 in0.0 mm 0.00 in0.0 mm 0.00 in0.0 mm
01:20 PM 72.8°F22.7°C 51.0°F10.6°C 32% 4.2 mph SE6.8 kmh SE 4.3 mph6.9 kmh 30.07 in1018.3 mb 0.00 in0.0 mm 0.00 in0.0 mm 0.00 in0.0 mm
01:26 PM 71.9°F22.2°C 52.1°F11.2°C 33% 2.8 mph E4.5 kmh E 2.8 mph4.5 kmh 30.06 in1017.9 mb 0.00 in0.0 mm 0.00 in0.0 mm 0.00 in0.0 mm
01:29 PM 71.8°F22.1°C 52.3°F11.3°C 33% 1.6 mph ENE2.6 kmh ENE 1.6 mph2.6 kmh 30.07 in1018.3 mb 0.00 in0.0 mm 0.00 in0.0 mm 0.00 in0.0 mm
01:32 PM 73.0°F22.8°C 52.2°F11.2°C 33% 0.8 mph NNW1.3 kmh NNW 0.8 mph1.3 kmh 30.07 in1018.3 mb 0.00 in0.0 mm 0.00 in0.0 mm 0.00 in0.0 mm
01:35 PM 72.5°F22.5°C 50.5°F10.3°C 31% 4.0 mph E6.4 kmh E 4.1 mph6.6 kmh 30.07 in1018.3 mb 0.00 in0.0 mm 0.00 in0.0 mm 0.00 in0.0 mm
01:41 PM 72.7°F22.6°C 51.3°F10.7°C 32% 13.5 mph ESE21.7 kmh ESE 13.6 mph21.9 kmh 30.07 in1018.3 mb 0.00 in0.0 mm 0.00 in0.0 mm 0.00 in0.0 mm
01:44 PM 71.9°F22.2°C 50.6°F10.3°C 32% 2.4 mph NNW3.9 kmh NNW 2.4 mph3.9 kmh 30.07 in1018.3 mb 0.00 in0.0 mm 0.00 in0.0 mm 0.00 in0.0 mm
01:47 PM 73.3°F22.9°C 52.3°F11.3°C 33% 4.4 mph E7.1 kmh E 4.4 mph7.1 kmh 30.07 in1018.3 mb 0.00 in0.0 mm 0.00 in0.0 mm 0.00 in0.0 mm
01:50 PM 73.6°F23.1°C 51.1°F10.6°C 31% 2.8 mph NE4.5 kmh NE 2.8 mph4.5 kmh 30.06 in1017.9 mb 0.00 in0.0 mm 0.00 in0.0 mm 0.00 in0.0 mm
01:56 PM 73.0°F22.8°C 50.8°F10.4°C 30% 5.6 mph ESE9.0 kmh ESE 5.7 mph9.2 kmh 30.07 in1018.3 mb 0.00 in0.0 mm 0.00 in0.0 mm 0.00 in0.0 mm
01:59 PM 72.1°F22.3°C 48.8°F9.3°C 29% 4.8 mph SE7.7 kmh SE 4.8 mph7.7 kmh 30.07 in1018.3 mb 0.00 in0.0 mm 0.00 in0.0 mm 0.00 in0.0 mm
02:05 PM 72.3°F22.4°C 48.7°F9.3°C 30% 4.0 mph SSE6.4 kmh SSE 4.0 mph6.4 kmh 30.06 in1017.9 mb 0.00 in0.0 mm 0.00 in0.0 mm 0.00 in0.0 mm
02:08 PM 72.2°F22.3°C 48.7°F9.3°C 30% 8.1 mph ESE13.0 kmh ESE 8.1 mph13.0 kmh 30.06 in1017.9 mb 0.00 in0.0 mm 0.00 in0.0 mm 0.00 in0.0 mm
02:14 PM 72.2°F22.3°C 48.6°F9.2°C 30% 10.1 mph NNW16.3 kmh NNW 10.1 mph16.3 kmh 30.07 in1018.3 mb 0.00 in0.0 mm 0.00 in0.0 mm 0.00 in0.0 mm
02:17 PM 72.4°F22.4°C 49.5°F9.7°C 30% 4.8 mph ESE7.7 kmh ESE 4.9 mph7.9 kmh 30.06 in1017.9 mb 0.00 in0.0 mm 0.00 in0.0 mm 0.00 in0.0 mm
02:20 PM 72.6°F22.6°C 49.3°F9.6°C 30% 3.2 mph SE5.1 kmh SE 3.3 mph5.3 kmh 30.06 in1017.9 mb 0.00 in0.0 mm 0.00 in0.0 mm 0.00 in0.0 mm
02:23 PM 72.6°F22.6°C 49.6°F9.8°C 30% 9.1 mph E14.6 kmh E 9.1 mph14.6 kmh 30.06 in1017.9 mb 0.00 in0.0 mm 0.00 in0.0 mm 0.00 in0.0 mm
02:26 PM 72.2°F22.3°C 48.4°F9.1°C 29% 5.7 mph ESE9.2 kmh ESE 5.7 mph9.2 kmh 30.06 in1017.9 mb 0.00 in0.0 mm 0.00 in0.0 mm 0.00 in0.0 mm
02:32 PM 73.1°F22.8°C 49.5°F9.7°C 30% 2.8 mph NE4.5 kmh NE 2.9 mph4.7 kmh 30.06 in1017.9 mb 0.00 in0.0 mm 0.00 in0.0 mm 0.00 in0.0 mm
02:35 PM 72.7°F22.6°C 50.0°F10.0°C 30% 5.6 mph NNW9.0 kmh NNW 5.6 mph9.0 kmh 30.05 in1017.6 mb 0.00 in0.0 mm 0.00 in0.0 mm 0.00 in0.0 mm
02:38 PM 73.0°F22.8°C 49.4°F9.7°C 30% 5.6 mph SE9.0 kmh SE 5.6 mph9.0 kmh 30.05 in1017.6 mb 0.00 in0.0 mm 0.00 in0.0 mm 0.00 in0.0 mm
02:41 PM 72.4°F22.4°C 48.3°F9.1°C 29% 5.2 mph NNW8.4 kmh NNW 5.3 mph8.5 kmh 30.06 in1017.9 mb 0.00 in0.0 mm 0.00 in0.0 mm 0.00 in0.0 mm
02:50 PM 72.3°F22.4°C 46.8°F8.2°C 28% 6.1 mph SE9.8 kmh SE 6.2 mph10.0 kmh 30.06 in1017.9 mb 0.00 in0.0 mm 0.00 in0.0 mm 0.00 in0.0 mm
02:53 PM 72.2°F22.3°C 48.6°F9.2°C 30% 4.6 mph NNW7.4 kmh NNW 4.7 mph7.6 kmh 30.05 in1017.6 mb 0.00 in0.0 mm 0.00 in0.0 mm 0.00 in0.0 mm
02:56 PM 73.6°F23.1°C 50.1°F10.1°C 32% 7.8 mph SE12.6 kmh SE 7.9 mph12.7 kmh 30.06 in1017.9 mb 0.00 in0.0 mm 0.00 in0.0 mm 0.00 in0.0 mm
02:59 PM 73.3°F22.9°C 48.2°F9.0°C 29% 10.1 mph NNW16.3 kmh NNW 10.3 mph16.6 kmh 30.06 in1017.9 mb 0.00 in0.0 mm 0.00 in0.0 mm 0.00 in0.0 mm
03:02 PM 73.0°F22.8°C 48.3°F9.1°C 30% 8.5 mph ESE13.7 kmh ESE 8.5 mph13.7 kmh 30.05 in1017.6 mb 0.00 in0.0 mm 0.00 in0.0 mm 0.00 in0.0 mm
03:05 PM 72.7°F22.6°C 47.6°F8.7°C 30% 9.7 mph SE15.6 kmh SE 9.7 mph15.6 kmh 30.06 in1017.9 mb 0.00 in0.0 mm 0.00 in0.0 mm 0.00 in0.0 mm
03:08 PM 73.1°F22.8°C 48.4°F9.1°C 30% 5.2 mph SE8.4 kmh SE 5.3 mph8.5 kmh 30.05 in1017.6 mb 0.00 in0.0 mm 0.00 in0.0 mm 0.00 in0.0 mm
03:11 PM 73.0°F22.8°C 49.1°F9.5°C 30% 7.4 mph SE11.9 kmh SE 7.4 mph11.9 kmh 30.05 in1017.6 mb 0.00 in0.0 mm 0.00 in0.0 mm 0.00 in0.0 mm
03:14 PM 73.0°F22.8°C 48.6°F9.2°C 30% 9.1 mph NNW14.6 kmh NNW 9.1 mph14.6 kmh 30.05 in1017.6 mb 0.00 in0.0 mm 0.00 in0.0 mm 0.00 in0.0 mm
03:17 PM 73.6°F23.1°C 47.9°F8.8°C 30% 8.7 mph ESE14.0 kmh ESE 8.8 mph14.2 kmh 30.05 in1017.6 mb 0.00 in0.0 mm 0.00 in0.0 mm 0.00 in0.0 mm
03:20 PM 74.0°F23.3°C 49.0°F9.4°C 30% 8.3 mph ESE13.4 kmh ESE 8.4 mph13.5 kmh 30.05 in1017.6 mb 0.00 in0.0 mm 0.00 in0.0 mm 0.00 in0.0 mm
03:23 PM 73.3°F22.9°C 47.9°F8.8°C 29% 6.3 mph NNW10.1 kmh NNW 6.3 mph10.1 kmh 30.05 in1017.6 mb 0.00 in0.0 mm 0.00 in0.0 mm 0.00 in0.0 mm
03:26 PM 73.5°F23.1°C 48.1°F8.9°C 29% 5.2 mph ESE8.4 kmh ESE 5.2 mph8.4 kmh 30.05 in1017.6 mb 0.00 in0.0 mm 0.00 in0.0 mm 0.00 in0.0 mm
03:29 PM 73.3°F22.9°C 49.0°F9.4°C 30% 4.4 mph SSE7.1 kmh SSE 4.4 mph7.1 kmh 30.05 in1017.6 mb 0.00 in0.0 mm 0.00 in0.0 mm 0.00 in0.0 mm
03:32 PM 74.0°F23.3°C 49.4°F9.7°C 31% 4.8 mph ENE7.7 kmh ENE 4.9 mph7.9 kmh 30.05 in1017.6 mb 0.00 in0.0 mm 0.00 in0.0 mm 0.00 in0.0 mm
03:35 PM 73.7°F23.2°C 48.8°F9.3°C 30% 8.7 mph SE14.0 kmh SE 8.8 mph14.2 kmh 30.05 in1017.6 mb 0.00 in0.0 mm 0.00 in0.0 mm 0.00 in0.0 mm
03:38 PM 74.1°F23.4°C 48.2°F9.0°C 30% 6.1 mph SE9.8 kmh SE 6.1 mph9.8 kmh 30.05 in1017.6 mb 0.00 in0.0 mm 0.00 in0.0 mm 0.00 in0.0 mm
03:41 PM 73.7°F23.2°C 48.6°F9.2°C 31% 10.7 mph NNW17.2 kmh NNW 10.8 mph17.4 kmh 30.05 in1017.6 mb 0.00 in0.0 mm 0.00 in0.0 mm 0.00 in0.0 mm
03:44 PM 74.3°F23.5°C 49.4°F9.7°C 31% 5.9 mph ESE9.5 kmh ESE 6.0 mph9.7 kmh 30.05 in1017.6 mb 0.00 in0.0 mm 0.00 in0.0 mm 0.00 in0.0 mm
03:47 PM 77.1°F25.1°C 50.0°F10.0°C 31% 2.0 mph E3.2 kmh E 2.0 mph3.2 kmh 30.05 in1017.6 mb 0.00 in0.0 mm 0.00 in0.0 mm 0.00 in0.0 mm
03:50 PM 75.7°F24.3°C 48.7°F9.3°C 30% 6.9 mph ESE11.1 kmh ESE 6.9 mph11.1 kmh 30.05 in1017.6 mb 0.00 in0.0 mm 0.00 in0.0 mm 0.00 in0.0 mm
03:53 PM 75.8°F24.3°C 49.0°F9.4°C 30% 5.6 mph ESE9.0 kmh ESE 5.7 mph9.2 kmh 30.04 in1017.3 mb 0.00 in0.0 mm 0.00 in0.0 mm 0.00 in0.0 mm
03:56 PM 75.1°F23.9°C 48.2°F9.0°C 30% 8.1 mph SE13.0 kmh SE 8.1 mph13.0 kmh 30.05 in1017.6 mb 0.00 in0.0 mm 0.00 in0.0 mm 0.00 in0.0 mm
03:59 PM 75.3°F24.1°C 49.4°F9.7°C 31% 6.8 mph ESE10.9 kmh ESE 6.8 mph10.9 kmh 30.05 in1017.6 mb 0.00 in0.0 mm 0.00 in0.0 mm 0.00 in0.0 mm
04:02 PM 74.6°F23.7°C 48.1°F8.9°C 30% 11.3 mph ESE18.2 kmh ESE 11.4 mph18.3 kmh 30.05 in1017.6 mb 0.00 in0.0 mm 0.00 in0.0 mm 0.00 in0.0 mm
04:05 PM 74.8°F23.8°C 48.0°F8.9°C 31% 8.9 mph ESE14.3 kmh ESE 9.0 mph14.5 kmh 30.05 in1017.6 mb 0.00 in0.0 mm 0.00 in0.0 mm 0.00 in0.0 mm
04:08 PM 74.3°F23.5°C 48.5°F9.2°C 31% 4.0 mph SE6.4 kmh SE 4.0 mph6.4 kmh 30.05 in1017.6 mb 0.00 in0.0 mm 0.00 in0.0 mm 0.00 in0.0 mm
04:11 PM 74.1°F23.4°C 48.3°F9.1°C 30% 5.3 mph SSE8.5 kmh SSE 5.3 mph8.5 kmh 30.05 in1017.6 mb 0.00 in0.0 mm 0.00 in0.0 mm 0.00 in0.0 mm
04:14 PM 74.4°F23.6°C 48.4°F9.1°C 30% 5.2 mph NNW8.4 kmh NNW 5.2 mph8.4 kmh 30.05 in1017.6 mb 0.00 in0.0 mm 0.00 in0.0 mm 0.00 in0.0 mm
04:17 PM 75.7°F24.3°C 50.1°F10.1°C 33% 5.2 mph ENE8.4 kmh ENE 5.2 mph8.4 kmh 30.05 in1017.6 mb 0.00 in0.0 mm 0.00 in0.0 mm 0.00 in0.0 mm
04:20 PM 77.3°F25.2°C 49.6°F9.8°C 31% 7.1 mph SE11.4 kmh SE 7.1 mph11.4 kmh 30.05 in1017.6 mb 0.00 in0.0 mm 0.00 in0.0 mm 0.00 in0.0 mm
04:23 PM 77.9°F25.5°C 49.6°F9.8°C 32% 1.6 mph NNW2.6 kmh NNW 1.6 mph2.6 kmh 30.05 in1017.6 mb 0.00 in0.0 mm 0.00 in0.0 mm 0.00 in0.0 mm
04:26 PM 77.9°F25.5°C 51.4°F10.8°C 32% 2.0 mph E3.2 kmh E 2.0 mph3.2 kmh 30.05 in1017.6 mb 0.00 in0.0 mm 0.00 in0.0 mm 0.00 in0.0 mm
04:29 PM 75.2°F24.0°C 48.2°F9.0°C 30% 5.2 mph ESE8.4 kmh ESE 5.3 mph8.5 kmh 30.05 in1017.6 mb 0.00 in0.0 mm 0.00 in0.0 mm 0.00 in0.0 mm
04:38 PM 75.3°F24.1°C 50.0°F10.0°C 32% 5.6 mph ESE9.0 kmh ESE 5.7 mph9.2 kmh 30.05 in1017.6 mb 0.00 in0.0 mm 0.00 in0.0 mm 0.00 in0.0 mm
04:44 PM 75.9°F24.4°C 49.4°F9.7°C 31% 4.0 mph SE6.4 kmh SE 4.1 mph6.6 kmh 30.05 in1017.6 mb 0.00 in0.0 mm 0.00 in0.0 mm 0.00 in0.0 mm
04:47 PM 75.1°F23.9°C 49.6°F9.8°C 31% 9.3 mph ESE15.0 kmh ESE 9.4 mph15.1 kmh 30.05 in1017.6 mb 0.00 in0.0 mm 0.00 in0.0 mm 0.00 in0.0 mm
04:50 PM 75.3°F24.1°C 49.2°F9.6°C 31% 7.3 mph NNW11.7 kmh NNW 7.4 mph11.9 kmh 30.05 in1017.6 mb 0.00 in0.0 mm 0.00 in0.0 mm 0.00 in0.0 mm
04:53 PM 76.4°F24.7°C 51.1°F10.6°C 33% 2.8 mph ESE4.5 kmh ESE 2.9 mph4.7 kmh 30.05 in1017.6 mb 0.00 in0.0 mm 0.00 in0.0 mm 0.00 in0.0 mm
04:56 PM 75.5°F24.2°C 49.7°F9.8°C 32% 3.6 mph SE5.8 kmh SE 3.6 mph5.8 kmh 30.05 in1017.6 mb 0.00 in0.0 mm 0.00 in0.0 mm 0.00 in0.0 mm
04:59 PM 75.1°F23.9°C 49.1°F9.5°C 32% 4.9 mph SE7.9 kmh SE 4.9 mph7.9 kmh 30.05 in1017.6 mb 0.00 in0.0 mm 0.00 in0.0 mm 0.00 in0.0 mm
05:02 PM 74.2°F23.4°C 48.3°F9.1°C 32% 7.3 mph NNW11.7 kmh NNW 7.3 mph11.7 kmh 30.04 in1017.3 mb 0.00 in0.0 mm 0.00 in0.0 mm 0.00 in0.0 mm
05:05 PM 75.3°F24.1°C 50.4°F10.2°C 33% 4.0 mph ESE6.4 kmh ESE 4.1 mph6.6 kmh 30.05 in1017.6 mb 0.00 in0.0 mm 0.00 in0.0 mm 0.00 in0.0 mm
05:08 PM 75.8°F24.3°C 49.8°F9.9°C 33% 2.8 mph NNW4.5 kmh NNW 2.8 mph4.5 kmh 30.05 in1017.6 mb 0.00 in0.0 mm 0.00 in0.0 mm 0.00 in0.0 mm
05:11 PM 76.8°F24.9°C 50.1°F10.1°C 33% 1.2 mph ESE1.9 kmh ESE 1.2 mph1.9 kmh 30.05 in1017.6 mb 0.00 in0.0 mm 0.00 in0.0 mm 0.00 in0.0 mm
05:14 PM 74.4°F23.6°C 48.5°F9.2°C 32% 4.4 mph ENE7.1 kmh ENE 4.5 mph7.2 kmh 30.04 in1017.3 mb 0.00 in0.0 mm 0.00 in0.0 mm 0.00 in0.0 mm
05:17 PM 73.6°F23.1°C 48.1°F8.9°C 31% 9.7 mph SE15.6 kmh SE 9.8 mph15.8 kmh 30.05 in1017.6 mb 0.00 in0.0 mm 0.00 in0.0 mm 0.00 in0.0 mm
05:20 PM 73.7°F23.2°C 48.8°F9.3°C 33% 5.6 mph NNW9.0 kmh NNW 5.6 mph9.0 kmh 30.04 in1017.3 mb 0.00 in0.0 mm 0.00 in0.0 mm 0.00 in0.0 mm
05:23 PM 73.0°F22.8°C 48.9°F9.4°C 33% 8.4 mph SE13.5 kmh SE 8.4 mph13.5 kmh 30.04 in1017.3 mb 0.00 in0.0 mm 0.00 in0.0 mm 0.00 in0.0 mm
05:26 PM 73.4°F23.0°C 48.7°F9.3°C 34% 4.0 mph SE6.4 kmh SE 4.1 mph6.6 kmh 30.04 in1017.3 mb 0.00 in0.0 mm 0.00 in0.0 mm 0.00 in0.0 mm
05:29 PM 73.2°F22.9°C 48.8°F9.3°C 34% 5.3 mph ESE8.5 kmh ESE 5.3 mph8.5 kmh 30.05 in1017.6 mb 0.00 in0.0 mm 0.00 in0.0 mm 0.00 in0.0 mm
05:32 PM 73.2°F22.9°C 47.8°F8.8°C 33% 7.7 mph ESE12.4 kmh ESE 7.7 mph12.4 kmh 30.05 in1017.6 mb 0.00 in0.0 mm 0.00 in0.0 mm 0.00 in0.0 mm
05:35 PM 72.7°F22.6°C 47.9°F8.8°C 34% 8.5 mph ESE13.7 kmh ESE 8.6 mph13.8 kmh 30.05 in1017.6 mb 0.00 in0.0 mm 0.00 in0.0 mm 0.00 in0.0 mm
05:38 PM 72.3°F22.4°C 47.7°F8.7°C 34% 4.0 mph SE6.4 kmh SE 4.1 mph6.6 kmh 30.05 in1017.6 mb 0.00 in0.0 mm 0.00 in0.0 mm 0.00 in0.0 mm
05:41 PM 72.3°F22.4°C 47.8°F8.8°C 34% 9.3 mph ESE15.0 kmh ESE 9.4 mph15.1 kmh 30.05 in1017.6 mb 0.00 in0.0 mm 0.00 in0.0 mm 0.00 in0.0 mm
05:44 PM 73.1°F22.8°C 48.2°F9.0°C 35% 3.6 mph SE5.8 kmh SE 3.6 mph5.8 kmh 30.05 in1017.6 mb 0.00 in0.0 mm 0.00 in0.0 mm 0.00 in0.0 mm
05:47 PM 72.5°F22.5°C 48.5°F9.2°C 34% 6.1 mph NNW9.8 kmh NNW 6.1 mph9.8 kmh 30.05 in1017.6 mb 0.00 in0.0 mm 0.00 in0.0 mm 0.00 in0.0 mm
05:50 PM 71.9°F22.2°C 48.2°F9.0°C 35% 7.2 mph ESE11.6 kmh ESE 7.2 mph11.6 kmh 30.05 in1017.6 mb 0.00 in0.0 mm 0.00 in0.0 mm 0.00 in0.0 mm
05:53 PM 71.9°F22.2°C 47.6°F8.7°C 34% 11.1 mph ESE17.9 kmh ESE 11.1 mph17.9 kmh 30.05 in1017.6 mb 0.00 in0.0 mm 0.00 in0.0 mm 0.00 in0.0 mm
05:56 PM 72.1°F22.3°C 49.1°F9.5°C 35% 9.8 mph SE15.8 kmh SE 9.9 mph15.9 kmh 30.05 in1017.6 mb 0.00 in0.0 mm 0.00 in0.0 mm 0.00 in0.0 mm
05:59 PM 71.4°F21.9°C 48.2°F9.0°C 35% 10.5 mph NNW16.9 kmh NNW 10.6 mph17.1 kmh 30.05 in1017.6 mb 0.00 in0.0 mm 0.00 in0.0 mm 0.00 in0.0 mm
06:02 PM 70.6°F21.4°C 47.3°F8.5°C 35% 8.9 mph E14.3 kmh E 8.9 mph14.3 kmh 30.05 in1017.6 mb 0.00 in0.0 mm 0.00 in0.0 mm 0.00 in0.0 mm
06:05 PM 71.0°F21.7°C 47.8°F8.8°C 35% 7.6 mph ESE12.2 kmh ESE 7.6 mph12.2 kmh 30.05 in1017.6 mb 0.00 in0.0 mm 0.00 in0.0 mm 0.00 in0.0 mm
06:08 PM 70.9°F21.6°C 47.9°F8.8°C 35% 5.3 mph ESE8.5 kmh ESE 5.3 mph8.5 kmh 30.05 in1017.6 mb 0.00 in0.0 mm 0.00 in0.0 mm 0.00 in0.0 mm
06:11 PM 71.0°F21.7°C 48.3°F9.1°C 35% 4.0 mph ESE6.4 kmh ESE 4.0 mph6.4 kmh 30.05 in1017.6 mb 0.00 in0.0 mm 0.00 in0.0 mm 0.00 in0.0 mm
06:14 PM 70.4°F21.3°C 48.4°F9.1°C 35% 5.6 mph E9.0 kmh E 5.6 mph9.0 kmh 30.05 in1017.6 mb 0.00 in0.0 mm 0.00 in0.0 mm 0.00 in0.0 mm
06:20 PM 70.4°F21.3°C 47.6°F8.7°C 35% 2.0 mph E3.2 kmh E 2.0 mph3.2 kmh 30.05 in1017.6 mb 0.00 in0.0 mm 0.00 in0.0 mm 0.00 in0.0 mm
06:23 PM 69.9°F21.1°C 47.7°F8.7°C 34% 7.2 mph NNW11.6 kmh NNW 7.2 mph11.6 kmh 30.05 in1017.6 mb 0.00 in0.0 mm 0.00 in0.0 mm 0.00 in0.0 mm
06:26 PM 69.5°F20.8°C 46.8°F8.2°C 34% 4.4 mph ESE7.1 kmh ESE 4.4 mph7.1 kmh 30.05 in1017.6 mb 0.00 in0.0 mm 0.00 in0.0 mm 0.00 in0.0 mm
06:29 PM 69.0°F20.6°C 47.9°F8.8°C 35% 10.5 mph ESE16.9 kmh ESE 10.6 mph17.1 kmh 30.06 in1017.9 mb 0.00 in0.0 mm 0.00 in0.0 mm 0.00 in0.0 mm
06:32 PM 69.2°F20.7°C 48.1°F8.9°C 36% 4.0 mph ESE6.4 kmh ESE 4.1 mph6.6 kmh 30.05 in1017.6 mb 0.00 in0.0 mm 0.00 in0.0 mm 0.00 in0.0 mm
06:35 PM 68.3°F20.2°C 47.1°F8.4°C 35% 6.9 mph SE11.1 kmh SE 6.9 mph11.1 kmh 30.05 in1017.6 mb 0.00 in0.0 mm 0.00 in0.0 mm 0.00 in0.0 mm
06:38 PM 69.0°F20.6°C 48.3°F9.1°C 37% 3.2 mph ESE5.1 kmh ESE 3.2 mph5.1 kmh 30.05 in1017.6 mb 0.00 in0.0 mm 0.00 in0.0 mm 0.00 in0.0 mm
06:41 PM 68.5°F20.3°C 48.2°F9.0°C 36% 4.8 mph ESE7.7 kmh ESE 4.9 mph7.9 kmh 30.05 in1017.6 mb 0.00 in0.0 mm 0.00 in0.0 mm 0.00 in0.0 mm
06:44 PM 67.8°F19.9°C 47.9°F8.8°C 36% 8.9 mph ESE14.3 kmh ESE 8.9 mph14.3 kmh 30.05 in1017.6 mb 0.00 in0.0 mm 0.00 in0.0 mm 0.00 in0.0 mm
06:47 PM 67.7°F19.8°C 47.0°F8.3°C 36% 9.3 mph ESE15.0 kmh ESE 9.4 mph15.1 kmh 30.05 in1017.6 mb 0.00 in0.0 mm 0.00 in0.0 mm 0.00 in0.0 mm
06:50 PM 68.0°F20.0°C 47.8°F8.8°C 36% 4.0 mph ESE6.4 kmh ESE 4.1 mph6.6 kmh 30.05 in1017.6 mb 0.00 in0.0 mm 0.00 in0.0 mm 0.00 in0.0 mm
06:53 PM 67.3°F19.6°C 47.4°F8.6°C 35% 6.4 mph NNW10.3 kmh NNW 6.4 mph10.3 kmh 30.05 in1017.6 mb 0.00 in0.0 mm 0.00 in0.0 mm 0.00 in0.0 mm
06:56 PM 67.4°F19.7°C 47.6°F8.7°C 36% 4.4 mph NNW7.1 kmh NNW 4.5 mph7.2 kmh 30.05 in1017.6 mb 0.00 in0.0 mm 0.00 in0.0 mm 0.00 in0.0 mm
06:59 PM 67.4°F19.7°C 48.2°F9.0°C 37% 5.2 mph ESE8.4 kmh ESE 5.2 mph8.4 kmh 30.05 in1017.6 mb 0.00 in0.0 mm 0.00 in0.0 mm 0.00 in0.0 mm
07:02 PM 66.9°F19.4°C 47.0°F8.3°C 36% 5.2 mph ESE8.4 kmh ESE 5.3 mph8.5 kmh 30.05 in1017.6 mb 0.00 in0.0 mm 0.00 in0.0 mm 0.00 in0.0 mm
07:05 PM 67.0°F19.4°C 47.1°F8.4°C 36% 3.6 mph ESE5.8 kmh ESE 3.7 mph6.0 kmh 30.05 in1017.6 mb 0.00 in0.0 mm 0.00 in0.0 mm 0.00 in0.0 mm
07:08 PM 66.5°F19.2°C 47.1°F8.4°C 36% 3.2 mph SE5.1 kmh SE 3.2 mph5.1 kmh 30.05 in1017.6 mb 0.00 in0.0 mm 0.00 in0.0 mm 0.00 in0.0 mm
07:14 PM 66.1°F18.9°C 47.0°F8.3°C 36% 5.6 mph ESE9.0 kmh ESE 5.7 mph9.2 kmh 30.06 in1017.9 mb 0.00 in0.0 mm 0.00 in0.0 mm 0.00 in0.0 mm
07:17 PM 65.5°F18.6°C 47.2°F8.4°C 37% 5.2 mph E8.4 kmh E 5.3 mph8.5 kmh 30.06 in1017.9 mb 0.00 in0.0 mm 0.00 in0.0 mm 0.00 in0.0 mm
07:23 PM 65.5°F18.6°C 47.6°F8.7°C 38% 4.0 mph SE6.4 kmh SE 4.1 mph6.6 kmh 30.06 in1017.9 mb 0.00 in0.0 mm 0.00 in0.0 mm 0.00 in0.0 mm
07:26 PM 65.2°F18.4°C 46.8°F8.2°C 37% 9.2 mph ESE14.8 kmh ESE 9.2 mph14.8 kmh 30.06 in1017.9 mb 0.00 in0.0 mm 0.00 in0.0 mm 0.00 in0.0 mm
07:29 PM 65.0°F18.3°C 47.3°F8.5°C 38% 5.3 mph ESE8.5 kmh ESE 5.3 mph8.5 kmh 30.05 in1017.6 mb 0.00 in0.0 mm 0.00 in0.0 mm 0.00 in0.0 mm
07:32 PM 65.0°F18.3°C 46.6°F8.1°C 38% 5.2 mph NNW8.4 kmh NNW 5.2 mph8.4 kmh 30.05 in1017.6 mb 0.00 in0.0 mm 0.00 in0.0 mm 0.00 in0.0 mm
07:35 PM 64.6°F18.1°C 46.8°F8.2°C 38% 3.6 mph ESE5.8 kmh ESE 3.7 mph6.0 kmh 30.06 in1017.9 mb 0.00 in0.0 mm 0.00 in0.0 mm 0.00 in0.0 mm
07:38 PM 64.3°F17.9°C 47.1°F8.4°C 39% 1.2 mph NNW1.9 kmh NNW 1.2 mph1.9 kmh 30.06 in1017.9 mb 0.00 in0.0 mm 0.00 in0.0 mm 0.00 in0.0 mm
07:41 PM 64.2°F17.9°C 47.5°F8.6°C 39% 8.5 mph ESE13.7 kmh ESE 8.6 mph13.8 kmh 30.05 in1017.6 mb 0.00 in0.0 mm 0.00 in0.0 mm 0.00 in0.0 mm
07:44 PM 64.2°F17.9°C 47.4°F8.6°C 39% 6.9 mph ESE11.1 kmh ESE 6.9 mph11.1 kmh 30.05 in1017.6 mb 0.00 in0.0 mm 0.00 in0.0 mm 0.00 in0.0 mm
07:47 PM 63.6°F17.6°C 47.2°F8.4°C 40% 4.4 mph SE7.1 kmh SE 4.4 mph7.1 kmh 30.05 in1017.6 mb 0.00 in0.0 mm 0.00 in0.0 mm 0.00 in0.0 mm
07:50 PM 63.4°F17.4°C 47.4°F8.6°C 40% 2.4 mph ESE3.9 kmh ESE 2.4 mph3.9 kmh 30.05 in1017.6 mb 0.00 in0.0 mm 0.00 in0.0 mm 0.00 in0.0 mm
07:53 PM 63.2°F17.3°C 47.0°F8.3°C 40% 6.5 mph ESE10.5 kmh ESE 6.5 mph10.5 kmh 30.06 in1017.9 mb 0.00 in0.0 mm 0.00 in0.0 mm 0.00 in0.0 mm
07:56 PM 63.2°F17.3°C 48.0°F8.9°C 40% 5.2 mph ESE8.4 kmh ESE 5.2 mph8.4 kmh 30.06 in1017.9 mb 0.00 in0.0 mm 0.00 in0.0 mm 0.00 in0.0 mm
07:59 PM 62.8°F17.1°C 46.7°F8.2°C 39% 1.6 mph ESE2.6 kmh ESE 1.6 mph2.6 kmh 30.06 in1017.9 mb 0.00 in0.0 mm 0.00 in0.0 mm 0.00 in0.0 mm
08:05 PM 62.5°F16.9°C 46.4°F8.0°C 40% 7.2 mph NNW11.6 kmh NNW 7.3 mph11.7 kmh 30.06 in1017.9 mb 0.00 in0.0 mm 0.00 in0.0 mm 0.00 in0.0 mm
08:08 PM 62.3°F16.8°C 46.6°F8.1°C 40% 4.0 mph ESE6.4 kmh ESE 4.0 mph6.4 kmh 30.06 in1017.9 mb 0.00 in0.0 mm 0.00 in0.0 mm 0.00 in0.0 mm
08:11 PM 62.3°F16.8°C 47.0°F8.3°C 41% 2.0 mph ESE3.2 kmh ESE 2.0 mph3.2 kmh 30.06 in1017.9 mb 0.00 in0.0 mm 0.00 in0.0 mm 0.00 in0.0 mm
08:14 PM 61.7°F16.5°C 47.7°F8.7°C 41% 2.0 mph NNW3.2 kmh NNW 2.0 mph3.2 kmh 30.06 in1017.9 mb 0.00 in0.0 mm 0.00 in0.0 mm 0.00 in0.0 mm
08:17 PM 61.9°F16.6°C 46.7°F8.2°C 41% 10.1 mph SE16.3 kmh SE 10.1 mph16.3 kmh 30.06 in1017.9 mb 0.00 in0.0 mm 0.00 in0.0 mm 0.00 in0.0 mm
08:20 PM 61.9°F16.6°C 46.9°F8.3°C 41% 5.7 mph ESE9.2 kmh ESE 5.7 mph9.2 kmh 30.06 in1017.9 mb 0.00 in0.0 mm 0.00 in0.0 mm 0.00 in0.0 mm
08:26 PM 61.5°F16.4°C 46.7°F8.2°C 41% 6.5 mph ESE10.5 kmh ESE 6.5 mph10.5 kmh 30.07 in1018.3 mb 0.00 in0.0 mm 0.00 in0.0 mm 0.00 in0.0 mm
08:29 PM 61.3°F16.3°C 46.8°F8.2°C 42% 5.7 mph SE9.2 kmh SE 5.7 mph9.2 kmh 30.06 in1017.9 mb 0.00 in0.0 mm 0.00 in0.0 mm 0.00 in0.0 mm
08:32 PM 61.1°F16.2°C 46.6°F8.1°C 42% 8.5 mph SE13.7 kmh SE 8.5 mph13.7 kmh 30.07 in1018.3 mb 0.00 in0.0 mm 0.00 in0.0 mm 0.00 in0.0 mm
08:35 PM 61.3°F16.3°C 46.8°F8.2°C 42% 1.6 mph E2.6 kmh E 1.6 mph2.6 kmh 30.07 in1018.3 mb 0.00 in0.0 mm 0.00 in0.0 mm 0.00 in0.0 mm
08:38 PM 61.0°F16.1°C 46.4°F8.0°C 42% 4.8 mph SE7.7 kmh SE 4.8 mph7.7 kmh 30.07 in1018.3 mb 0.00 in0.0 mm 0.00 in0.0 mm 0.00 in0.0 mm
08:41 PM 60.8°F16.0°C 46.5°F8.1°C 42% 2.8 mph NNW4.5 kmh NNW 2.9 mph4.7 kmh 30.07 in1018.3 mb 0.00 in0.0 mm 0.00 in0.0 mm 0.00 in0.0 mm
08:44 PM 60.7°F15.9°C 46.8°F8.2°C 43% 6.0 mph NNW9.7 kmh NNW 6.1 mph9.8 kmh 30.07 in1018.3 mb 0.00 in0.0 mm 0.00 in0.0 mm 0.00 in0.0 mm
08:47 PM 60.6°F15.9°C 46.2°F7.9°C 42% 7.1 mph SE11.4 kmh SE 7.2 mph11.6 kmh 30.07 in1018.3 mb 0.00 in0.0 mm 0.00 in0.0 mm 0.00 in0.0 mm
08:50 PM 60.6°F15.9°C 46.5°F8.1°C 42% 5.2 mph ESE8.4 kmh ESE 5.2 mph8.4 kmh 30.07 in1018.3 mb 0.00 in0.0 mm 0.00 in0.0 mm 0.00 in0.0 mm
08:59 PM 60.2°F15.7°C 46.2°F7.9°C 42% 4.8 mph ESE7.7 kmh ESE 4.9 mph7.9 kmh 30.07 in1018.3 mb 0.00 in0.0 mm 0.00 in0.0 mm 0.00 in0.0 mm
09:02 PM 60.0°F15.6°C 46.5°F8.1°C 43% 6.1 mph NNW9.8 kmh NNW 6.1 mph9.8 kmh 30.07 in1018.3 mb 0.00 in0.0 mm 0.00 in0.0 mm 0.00 in0.0 mm
09:11 PM 59.8°F15.4°C 46.4°F8.0°C 43% 2.4 mph SE3.9 kmh SE 2.4 mph3.9 kmh 30.07 in1018.3 mb 0.00 in0.0 mm 0.00 in0.0 mm 0.00 in0.0 mm
09:14 PM 59.7°F15.4°C 46.4°F8.0°C 43% 3.6 mph E5.8 kmh E 3.7 mph6.0 kmh 30.07 in1018.3 mb 0.00 in0.0 mm 0.00 in0.0 mm 0.00 in0.0 mm
09:17 PM 59.7°F15.4°C 46.1°F7.8°C 43% 4.8 mph NNW7.7 kmh NNW 4.9 mph7.9 kmh 30.07 in1018.3 mb 0.00 in0.0 mm 0.00 in0.0 mm 0.00 in0.0 mm
09:20 PM 59.5°F15.3°C 46.1°F7.8°C 43% 7.7 mph NNW12.4 kmh NNW 7.7 mph12.4 kmh 30.07 in1018.3 mb 0.00 in0.0 mm 0.00 in0.0 mm 0.00 in0.0 mm
09:23 PM 59.8°F15.4°C 45.8°F7.7°C 44% 3.2 mph ESE5.1 kmh ESE 3.2 mph5.1 kmh 30.07 in1018.3 mb 0.00 in0.0 mm 0.00 in0.0 mm 0.00 in0.0 mm
09:29 PM 59.3°F15.2°C 46.2°F7.9°C 44% 7.3 mph ESE11.7 kmh ESE 7.3 mph11.7 kmh 30.07 in1018.3 mb 0.00 in0.0 mm 0.00 in0.0 mm 0.00 in0.0 mm
09:32 PM 59.3°F15.2°C 45.8°F7.7°C 44% 7.7 mph ESE12.4 kmh ESE 7.8 mph12.6 kmh 30.07 in1018.3 mb 0.00 in0.0 mm 0.00 in0.0 mm 0.00 in0.0 mm
09:38 PM 59.3°F15.2°C 45.5°F7.5°C 44% 6.9 mph SE11.1 kmh SE 6.9 mph11.1 kmh 30.07 in1018.3 mb 0.00 in0.0 mm 0.00 in0.0 mm 0.00 in0.0 mm
09:41 PM 59.0°F15.0°C 45.8°F7.7°C 45% 9.7 mph NNW15.6 kmh NNW 9.7 mph15.6 kmh 30.07 in1018.3 mb 0.00 in0.0 mm 0.00 in0.0 mm 0.00 in0.0 mm
09:44 PM 59.2°F15.1°C 45.9°F7.7°C 45% 6.1 mph SE9.8 kmh SE 6.1 mph9.8 kmh 30.07 in1018.3 mb 0.00 in0.0 mm 0.00 in0.0 mm 0.00 in0.0 mm
09:47 PM 59.0°F15.0°C 46.1°F7.8°C 45% 5.6 mph NNW9.0 kmh NNW 5.7 mph9.2 kmh 30.07 in1018.3 mb 0.00 in0.0 mm 0.00 in0.0 mm 0.00 in0.0 mm
09:50 PM 59.1°F15.1°C 46.0°F7.8°C 45% 7.2 mph SE11.6 kmh SE 7.3 mph11.7 kmh 30.07 in1018.3 mb 0.00 in0.0 mm 0.00 in0.0 mm 0.00 in0.0 mm
09:53 PM 58.6°F14.8°C 45.6°F7.6°C 45% 5.2 mph ESE8.4 kmh ESE 5.2 mph8.4 kmh 30.07 in1018.3 mb 0.00 in0.0 mm 0.00 in0.0 mm 0.00 in0.0 mm
09:56 PM 58.8°F14.9°C 45.7°F7.6°C 46% 10.1 mph SE16.3 kmh SE 10.2 mph16.4 kmh 30.07 in1018.3 mb 0.00 in0.0 mm 0.00 in0.0 mm 0.00 in0.0 mm
09:59 PM 58.9°F14.9°C 45.6°F7.6°C 46% 4.4 mph SE7.1 kmh SE 4.5 mph7.2 kmh 30.07 in1018.3 mb 0.00 in0.0 mm 0.00 in0.0 mm 0.00 in0.0 mm
10:02 PM 58.7°F14.8°C 45.6°F7.6°C 46% 6.9 mph NNW11.1 kmh NNW 6.9 mph11.1 kmh 30.07 in1018.3 mb 0.00 in0.0 mm 0.00 in0.0 mm 0.00 in0.0 mm
10:05 PM 58.8°F14.9°C 45.7°F7.6°C 46% 9.5 mph NNW15.3 kmh NNW 9.6 mph15.4 kmh 30.07 in1018.3 mb 0.00 in0.0 mm 0.00 in0.0 mm 0.00 in0.0 mm
10:08 PM 58.8°F14.9°C 45.3°F7.4°C 45% 7.7 mph NNW12.4 kmh NNW 7.7 mph12.4 kmh 30.07 in1018.3 mb 0.00 in0.0 mm 0.00 in0.0 mm 0.00 in0.0 mm
10:11 PM 58.7°F14.8°C 45.6°F7.6°C 46% 5.6 mph SE9.0 kmh SE 5.6 mph9.0 kmh 30.07 in1018.3 mb 0.00 in0.0 mm 0.00 in0.0 mm 0.00 in0.0 mm
10:14 PM 58.6°F14.8°C 45.6°F7.6°C 46% 6.1 mph NNW9.8 kmh NNW 6.1 mph9.8 kmh 30.07 in1018.3 mb 0.00 in0.0 mm 0.00 in0.0 mm 0.00 in0.0 mm
10:17 PM 58.7°F14.8°C 45.4°F7.4°C 46% 8.1 mph SE13.0 kmh SE 8.2 mph13.2 kmh 30.07 in1018.3 mb 0.00 in0.0 mm 0.00 in0.0 mm 0.00 in0.0 mm
10:20 PM 57.8°F14.3°C 45.6°F7.6°C 46% 5.7 mph SE9.2 kmh SE 5.7 mph9.2 kmh 30.07 in1018.3 mb 0.00 in0.0 mm 0.00 in0.0 mm 0.00 in0.0 mm
10:23 PM 57.8°F14.3°C 45.4°F7.4°C 46% 2.4 mph SE3.9 kmh SE 2.4 mph3.9 kmh 30.07 in1018.3 mb 0.00 in0.0 mm 0.00 in0.0 mm 0.00 in0.0 mm
10:26 PM 57.9°F14.4°C 45.8°F7.7°C 47% 2.4 mph NNW3.9 kmh NNW 2.4 mph3.9 kmh 30.07 in1018.3 mb 0.00 in0.0 mm 0.00 in0.0 mm 0.00 in0.0 mm
10:29 PM 58.0°F14.4°C 45.2°F7.3°C 46% 6.4 mph SE10.3 kmh SE 6.5 mph10.5 kmh 30.07 in1018.3 mb 0.00 in0.0 mm 0.00 in0.0 mm 0.00 in0.0 mm
10:32 PM 58.2°F14.6°C 45.1°F7.3°C 46% 9.3 mph ESE15.0 kmh ESE 9.3 mph15.0 kmh 30.07 in1018.3 mb 0.00 in0.0 mm 0.00 in0.0 mm 0.00 in0.0 mm
10:35 PM 57.7°F14.3°C 45.5°F7.5°C 47% 4.4 mph NNW7.1 kmh NNW 4.4 mph7.1 kmh 30.07 in1018.3 mb 0.00 in0.0 mm 0.00 in0.0 mm 0.00 in0.0 mm
10:41 PM 58.0°F14.4°C 45.1°F7.3°C 47% 10.9 mph ESE17.5 kmh ESE 11.0 mph17.7 kmh 30.07 in1018.3 mb 0.00 in0.0 mm 0.00 in0.0 mm 0.00 in0.0 mm
10:47 PM 58.0°F14.4°C 44.9°F7.2°C 46% 5.2 mph NNW8.4 kmh NNW 5.2 mph8.4 kmh 30.07 in1018.3 mb 0.00 in0.0 mm 0.00 in0.0 mm 0.00 in0.0 mm
10:50 PM 57.1°F13.9°C 45.5°F7.5°C 47% 2.4 mph NNW3.9 kmh NNW 2.4 mph3.9 kmh 30.07 in1018.3 mb 0.00 in0.0 mm 0.00 in0.0 mm 0.00 in0.0 mm
10:53 PM 57.1°F13.9°C 45.4°F7.4°C 47% 2.4 mph SE3.9 kmh SE 2.4 mph3.9 kmh 30.07 in1018.3 mb 0.00 in0.0 mm 0.00 in0.0 mm 0.00 in0.0 mm
10:56 PM 57.2°F14.0°C 45.2°F7.3°C 46% 3.6 mph SE5.8 kmh SE 3.7 mph6.0 kmh 30.07 in1018.3 mb 0.00 in0.0 mm 0.00 in0.0 mm 0.00 in0.0 mm
10:59 PM 57.0°F13.9°C 45.1°F7.3°C 47% 4.4 mph SE7.1 kmh SE 4.5 mph7.2 kmh 30.07 in1018.3 mb 0.00 in0.0 mm 0.00 in0.0 mm 0.00 in0.0 mm
11:02 PM 56.8°F13.8°C 45.1°F7.3°C 47% 4.2 mph NNW6.8 kmh NNW 4.2 mph6.8 kmh 30.07 in1018.3 mb 0.00 in0.0 mm 0.00 in0.0 mm 0.00 in0.0 mm
11:05 PM 56.0°F13.3°C 45.5°F7.5°C 47% 2.4 mph SE3.9 kmh SE 2.4 mph3.9 kmh 30.07 in1018.3 mb 0.00 in0.0 mm 0.00 in0.0 mm 0.00 in0.0 mm
11:08 PM 55.7°F13.2°C 45.4°F7.4°C 47% 3.6 mph ESE5.8 kmh ESE 3.6 mph5.8 kmh 30.08 in1018.6 mb 0.00 in0.0 mm 0.00 in0.0 mm 0.00 in0.0 mm
11:11 PM 56.0°F13.3°C 45.2°F7.3°C 47% 0.8 mph SE1.3 kmh SE 0.8 mph1.3 kmh 30.07 in1018.3 mb 0.00 in0.0 mm 0.00 in0.0 mm 0.00 in0.0 mm
11:14 PM 55.7°F13.2°C 45.3°F7.4°C 47% 1.2 mph NNW1.9 kmh NNW 1.2 mph1.9 kmh 30.07 in1018.3 mb 0.00 in0.0 mm 0.00 in0.0 mm 0.00 in0.0 mm
11:20 PM 55.5°F13.1°C 45.2°F7.3°C 48% 2.4 mph ESE3.9 kmh ESE 2.4 mph3.9 kmh 30.08 in1018.6 mb 0.00 in0.0 mm 0.00 in0.0 mm 0.00 in0.0 mm
11:23 PM 55.5°F13.1°C 45.6°F7.6°C 48% 3.2 mph SE5.1 kmh SE 3.3 mph5.3 kmh 30.07 in1018.3 mb 0.00 in0.0 mm 0.00 in0.0 mm 0.00 in0.0 mm
11:26 PM 55.2°F12.9°C 45.4°F7.4°C 48% Calm Calm -- 30.07 in1018.3 mb 0.00 in0.0 mm 0.00 in0.0 mm 0.00 in0.0 mm
11:29 PM 54.7°F12.6°C 45.8°F7.7°C 49% 2.4 mph SE3.9 kmh SE 2.4 mph3.9 kmh 30.08 in1018.6 mb 0.00 in0.0 mm 0.00 in0.0 mm 0.00 in0.0 mm
11:32 PM 54.3°F12.4°C 45.4°F7.4°C 49% 1.6 mph SE2.6 kmh SE 1.6 mph2.6 kmh 30.07 in1018.3 mb 0.00 in0.0 mm 0.00 in0.0 mm 0.00 in0.0 mm
11:35 PM 54.2°F12.3°C 45.7°F7.6°C 49% 1.6 mph SE2.6 kmh SE 1.6 mph2.6 kmh 30.07 in1018.3 mb 0.00 in0.0 mm 0.00 in0.0 mm 0.00 in0.0 mm
11:38 PM 53.8°F12.1°C 45.6°F7.6°C 49% Calm Calm -- 30.07 in1018.3 mb 0.00 in0.0 mm 0.00 in0.0 mm 0.00 in0.0 mm
11:41 PM 53.6°F12.0°C 46.0°F7.8°C 50% 0.8 mph SE1.3 kmh SE 0.8 mph1.3 kmh 30.07 in1018.3 mb 0.00 in0.0 mm 0.00 in0.0 mm 0.00 in0.0 mm
11:47 PM 53.9°F12.2°C 45.7°F7.6°C 50% 1.6 mph SE2.6 kmh SE 1.6 mph2.6 kmh 30.07 in1018.3 mb 0.00 in0.0 mm 0.00 in0.0 mm 0.00 in0.0 mm
11:50 PM 54.2°F12.3°C 45.4°F7.4°C 50% 4.8 mph NNW7.7 kmh NNW 4.8 mph7.7 kmh 30.07 in1018.3 mb 0.00 in0.0 mm 0.00 in0.0 mm 0.00 in0.0 mm
11:53 PM 54.4°F12.4°C 45.7°F7.6°C 51% 3.6 mph SE5.8 kmh SE 3.7 mph6.0 kmh 30.07 in1018.3 mb 0.00 in0.0 mm 0.00 in0.0 mm 0.00 in0.0 mm
11:56 PM 53.9°F12.2°C 45.5°F7.5°C 51% 0.8 mph NNW1.3 kmh NNW 0.8 mph1.3 kmh 30.07 in1018.3 mb 0.00 in0.0 mm 0.00 in0.0 mm 0.00 in0.0 mm
11:59 PM 53.8°F12.1°C 45.7°F7.6°C 51% Calm Calm -- 30.07 in1018.3 mb 0.00 in0.0 mm 0.00 in0.0 mm 0.00 in0.0 mm